<?xml version="1.0" encoding="UTF-8"?>
<gpx version="1.1" creator="2bulu-scraper" xmlns="http://www.topografix.com/GPX/1/1">
  <metadata><name>巧家药山一日往返（加巴卡路线）</name><desc>source: 2bulu.com trackId=75269867; exported 2026-09-01T18:35:04.221Z</desc>
    <bounds minlat="27.2041718" minlon="103.0752852" maxlat="27.2135833" maxlon="103.1093513"/>
    <link href="https://www.2bulu.com/track/t-JQuFpUaTQDbp%252FR2KBg5Tzw%253D%253D.htm"><text>2bulu 源页面</text></link>
  </metadata>
  <wpt lat="27.2052039" lon="103.1088678"><ele>2828</ele><name>
        </name></wpt>
  <wpt lat="27.204393" lon="103.1047665"><ele>2939</ele><name>
        </name></wpt>
  <wpt lat="27.206898" lon="103.0955892"><ele>3087</ele><name>
        </name></wpt>
  <wpt lat="27.2104407" lon="103.0913448"><ele>3450</ele><name>
        </name></wpt>
  <wpt lat="27.2104407" lon="103.0913448"><ele>3450</ele><name>
        </name></wpt>
  <wpt lat="27.2104407" lon="103.0913448"><ele>3450</ele><name>
        </name></wpt>
  <wpt lat="27.2115613" lon="103.08925"><ele>3546</ele><name>
        </name></wpt>
  <wpt lat="27.2118206" lon="103.0830542"><ele>3728</ele><name>
        </name></wpt>
  <wpt lat="27.2111565" lon="103.0789418"><ele>3777</ele><name>最陡的坡
        </name></wpt>
  <wpt lat="27.2120343" lon="103.0753316"><ele>3907</ele><name>
        </name></wpt>
  <trk><name>巧家药山一日往返（加巴卡路线）</name>
      <trkseg>
        <trkpt lat="27.2051539" lon="103.1089796"><ele>2831</ele><time>2025-11-26T17:16:35.000Z</time></trkpt>
        <trkpt lat="27.2051494" lon="103.1090805"><ele>2831</ele><time>2025-11-26T17:19:31.000Z</time></trkpt>
        <trkpt lat="27.2051644" lon="103.1089715"><ele>2829.88</ele><time>2025-11-26T17:21:55.000Z</time></trkpt>
        <trkpt lat="27.2052039" lon="103.1088678"><ele>2828.97</ele><time>2025-11-26T17:22:09.000Z</time></trkpt>
        <trkpt lat="27.2052605" lon="103.1087736"><ele>2828.52</ele><time>2025-11-26T17:22:31.000Z</time></trkpt>
        <trkpt lat="27.205339" lon="103.1087248"><ele>2829.19</ele><time>2025-11-26T17:22:53.000Z</time></trkpt>
        <trkpt lat="27.2053265" lon="103.1086485"><ele>2830.74</ele><time>2025-11-26T17:23:47.000Z</time></trkpt>
        <trkpt lat="27.2052514" lon="103.1085966"><ele>2833.06</ele><time>2025-11-26T17:24:17.000Z</time></trkpt>
        <trkpt lat="27.2051626" lon="103.1085422"><ele>2833.62</ele><time>2025-11-26T17:24:29.000Z</time></trkpt>
        <trkpt lat="27.2050593" lon="103.1084781"><ele>2834.21</ele><time>2025-11-26T17:24:45.000Z</time></trkpt>
        <trkpt lat="27.204974" lon="103.1084068"><ele>2834.18</ele><time>2025-11-26T17:24:55.000Z</time></trkpt>
        <trkpt lat="27.2048845" lon="103.1083599"><ele>2834.35</ele><time>2025-11-26T17:25:25.000Z</time></trkpt>
        <trkpt lat="27.2048308" lon="103.1082738"><ele>2834.75</ele><time>2025-11-26T17:25:37.000Z</time></trkpt>
        <trkpt lat="27.2047671" lon="103.1081953"><ele>2835.74</ele><time>2025-11-26T17:25:47.000Z</time></trkpt>
        <trkpt lat="27.2046936" lon="103.1081202"><ele>2836.26</ele><time>2025-11-26T17:25:59.000Z</time></trkpt>
        <trkpt lat="27.2046162" lon="103.1080611"><ele>2836.98</ele><time>2025-11-26T17:26:09.000Z</time></trkpt>
        <trkpt lat="27.2045276" lon="103.10802"><ele>2837.63</ele><time>2025-11-26T17:26:23.000Z</time></trkpt>
        <trkpt lat="27.2044412" lon="103.1079753"><ele>2838.8</ele><time>2025-11-26T17:26:39.000Z</time></trkpt>
        <trkpt lat="27.2043524" lon="103.107925"><ele>2839.59</ele><time>2025-11-26T17:26:51.000Z</time></trkpt>
        <trkpt lat="27.2042676" lon="103.1078825"><ele>2840.28</ele><time>2025-11-26T17:27:01.000Z</time></trkpt>
        <trkpt lat="27.2042008" lon="103.1078094"><ele>2841.55</ele><time>2025-11-26T17:27:13.000Z</time></trkpt>
        <trkpt lat="27.2041834" lon="103.1076974"><ele>2842.17</ele><time>2025-11-26T17:27:25.000Z</time></trkpt>
        <trkpt lat="27.2041983" lon="103.1075814"><ele>2843.22</ele><time>2025-11-26T17:27:37.000Z</time></trkpt>
        <trkpt lat="27.2042152" lon="103.1074638"><ele>2844.29</ele><time>2025-11-26T17:27:51.000Z</time></trkpt>
        <trkpt lat="27.2042236" lon="103.1073484"><ele>2845.82</ele><time>2025-11-26T17:28:03.000Z</time></trkpt>
        <trkpt lat="27.2042192" lon="103.1072352"><ele>2847.51</ele><time>2025-11-26T17:28:15.000Z</time></trkpt>
        <trkpt lat="27.2041996" lon="103.1071328"><ele>2848.73</ele><time>2025-11-26T17:28:27.000Z</time></trkpt>
        <trkpt lat="27.2041999" lon="103.1070285"><ele>2849.48</ele><time>2025-11-26T17:28:41.000Z</time></trkpt>
        <trkpt lat="27.2042527" lon="103.1069408"><ele>2850.42</ele><time>2025-11-26T17:28:57.000Z</time></trkpt>
        <trkpt lat="27.2043143" lon="103.1068573"><ele>2852.57</ele><time>2025-11-26T17:29:11.000Z</time></trkpt>
        <trkpt lat="27.2043666" lon="103.1067647"><ele>2854.46</ele><time>2025-11-26T17:29:27.000Z</time></trkpt>
        <trkpt lat="27.2044309" lon="103.1066764"><ele>2856.42</ele><time>2025-11-26T17:30:14.000Z</time></trkpt>
        <trkpt lat="27.2044836" lon="103.1065791"><ele>2859.89</ele><time>2025-11-26T17:30:36.000Z</time></trkpt>
        <trkpt lat="27.2045041" lon="103.1064768"><ele>2863.47</ele><time>2025-11-26T17:30:52.000Z</time></trkpt>
        <trkpt lat="27.2044936" lon="103.1063735"><ele>2866.96</ele><time>2025-11-26T17:31:20.000Z</time></trkpt>
        <trkpt lat="27.2044465" lon="103.1062775"><ele>2870.04</ele><time>2025-11-26T17:31:46.000Z</time></trkpt>
        <trkpt lat="27.2043955" lon="103.1061867"><ele>2873.5</ele><time>2025-11-26T17:32:12.000Z</time></trkpt>
        <trkpt lat="27.2043805" lon="103.1060856"><ele>2878.12</ele><time>2025-11-26T17:32:48.000Z</time></trkpt>
        <trkpt lat="27.2043557" lon="103.1059881"><ele>2882.68</ele><time>2025-11-26T17:34:00.000Z</time></trkpt>
        <trkpt lat="27.2043987" lon="103.1058966"><ele>2887.92</ele><time>2025-11-26T17:34:28.000Z</time></trkpt>
        <trkpt lat="27.2044571" lon="103.1058142"><ele>2892.46</ele><time>2025-11-26T17:35:00.000Z</time></trkpt>
        <trkpt lat="27.2045502" lon="103.1058042"><ele>2897</ele><time>2025-11-26T17:35:31.000Z</time></trkpt>
        <trkpt lat="27.2046368" lon="103.1058668"><ele>2900.48</ele><time>2025-11-26T17:35:53.000Z</time></trkpt>
        <trkpt lat="27.2047271" lon="103.1058774"><ele>2903.98</ele><time>2025-11-26T17:36:15.000Z</time></trkpt>
        <trkpt lat="27.2047612" lon="103.1057966"><ele>2907.82</ele><time>2025-11-26T17:36:41.000Z</time></trkpt>
        <trkpt lat="27.204765" lon="103.1056866"><ele>2911.19</ele><time>2025-11-26T17:36:59.000Z</time></trkpt>
        <trkpt lat="27.2047575" lon="103.1055689"><ele>2914.7</ele><time>2025-11-26T17:37:23.000Z</time></trkpt>
        <trkpt lat="27.2047206" lon="103.105461"><ele>2917.75</ele><time>2025-11-26T17:37:51.000Z</time></trkpt>
        <trkpt lat="27.2046506" lon="103.1053866"><ele>2919.84</ele><time>2025-11-26T17:38:15.000Z</time></trkpt>
        <trkpt lat="27.2045805" lon="103.1053055"><ele>2922.91</ele><time>2025-11-26T17:38:33.000Z</time></trkpt>
        <trkpt lat="27.2045141" lon="103.1052232"><ele>2925.69</ele><time>2025-11-26T17:38:45.000Z</time></trkpt>
        <trkpt lat="27.2044419" lon="103.1051512"><ele>2927.7</ele><time>2025-11-26T17:38:57.000Z</time></trkpt>
        <trkpt lat="27.2043727" lon="103.1050737"><ele>2929.43</ele><time>2025-11-26T17:39:09.000Z</time></trkpt>
        <trkpt lat="27.2043353" lon="103.1049724"><ele>2930.89</ele><time>2025-11-26T17:39:25.000Z</time></trkpt>
        <trkpt lat="27.2043518" lon="103.1048722"><ele>2932.31</ele><time>2025-11-26T17:39:41.000Z</time></trkpt>
        <trkpt lat="27.204393" lon="103.1047665"><ele>2934.22</ele><time>2025-11-26T17:39:57.000Z</time></trkpt>
        <trkpt lat="27.2044646" lon="103.1046718"><ele>2936.32</ele><time>2025-11-26T17:42:45.000Z</time></trkpt>
        <trkpt lat="27.2045122" lon="103.1045841"><ele>2940.11</ele><time>2025-11-26T17:42:55.000Z</time></trkpt>
        <trkpt lat="27.2045776" lon="103.1045081"><ele>2942.35</ele><time>2025-11-26T17:46:53.000Z</time></trkpt>
        <trkpt lat="27.204647" lon="103.1044134"><ele>2944.92</ele><time>2025-11-26T17:47:11.000Z</time></trkpt>
        <trkpt lat="27.2047183" lon="103.1043205"><ele>2948.28</ele><time>2025-11-26T17:47:32.000Z</time></trkpt>
        <trkpt lat="27.2047749" lon="103.1042352"><ele>2951.02</ele><time>2025-11-26T17:47:42.000Z</time></trkpt>
        <trkpt lat="27.2048095" lon="103.1041422"><ele>2951.99</ele><time>2025-11-26T17:47:54.000Z</time></trkpt>
        <trkpt lat="27.2048051" lon="103.1040376"><ele>2952.5</ele><time>2025-11-26T17:48:08.000Z</time></trkpt>
        <trkpt lat="27.2047807" lon="103.1039307"><ele>2953.61</ele><time>2025-11-26T17:48:22.000Z</time></trkpt>
        <trkpt lat="27.2047725" lon="103.103817"><ele>2954.76</ele><time>2025-11-26T17:48:38.000Z</time></trkpt>
        <trkpt lat="27.20477" lon="103.1036994"><ele>2955.36</ele><time>2025-11-26T17:48:50.000Z</time></trkpt>
        <trkpt lat="27.2047475" lon="103.103585"><ele>2955.42</ele><time>2025-11-26T17:49:04.000Z</time></trkpt>
        <trkpt lat="27.2047076" lon="103.1034873"><ele>2954.84</ele><time>2025-11-26T17:49:18.000Z</time></trkpt>
        <trkpt lat="27.2046301" lon="103.1034214"><ele>2955.53</ele><time>2025-11-26T17:49:34.000Z</time></trkpt>
        <trkpt lat="27.2045626" lon="103.1033361"><ele>2957.28</ele><time>2025-11-26T17:49:46.000Z</time></trkpt>
        <trkpt lat="27.2045181" lon="103.1032342"><ele>2959.49</ele><time>2025-11-26T17:50:02.000Z</time></trkpt>
        <trkpt lat="27.2044701" lon="103.1031443"><ele>2961</ele><time>2025-11-26T17:50:14.000Z</time></trkpt>
        <trkpt lat="27.2044563" lon="103.1030463"><ele>2962.31</ele><time>2025-11-26T17:50:26.000Z</time></trkpt>
        <trkpt lat="27.2044528" lon="103.1029406"><ele>2962.93</ele><time>2025-11-26T17:50:38.000Z</time></trkpt>
        <trkpt lat="27.204489" lon="103.1028276"><ele>2963.37</ele><time>2025-11-26T17:50:52.000Z</time></trkpt>
        <trkpt lat="27.2045435" lon="103.1027297"><ele>2963.6</ele><time>2025-11-26T17:51:06.000Z</time></trkpt>
        <trkpt lat="27.2045975" lon="103.1026249"><ele>2963.85</ele><time>2025-11-26T17:51:18.000Z</time></trkpt>
        <trkpt lat="27.204633" lon="103.1025187"><ele>2964.33</ele><time>2025-11-26T17:51:28.000Z</time></trkpt>
        <trkpt lat="27.2046665" lon="103.1024165"><ele>2964.09</ele><time>2025-11-26T17:51:40.000Z</time></trkpt>
        <trkpt lat="27.2046926" lon="103.1023037"><ele>2964.84</ele><time>2025-11-26T17:51:52.000Z</time></trkpt>
        <trkpt lat="27.2046882" lon="103.1021879"><ele>2965.43</ele><time>2025-11-26T17:52:04.000Z</time></trkpt>
        <trkpt lat="27.2046665" lon="103.102083"><ele>2966.05</ele><time>2025-11-26T17:52:14.000Z</time></trkpt>
        <trkpt lat="27.2046285" lon="103.1019881"><ele>2966.16</ele><time>2025-11-26T17:52:24.000Z</time></trkpt>
        <trkpt lat="27.2045895" lon="103.1018894"><ele>2966.8</ele><time>2025-11-26T17:52:38.000Z</time></trkpt>
        <trkpt lat="27.2045937" lon="103.1017836"><ele>2967.48</ele><time>2025-11-26T17:52:54.000Z</time></trkpt>
        <trkpt lat="27.20462" lon="103.1016756"><ele>2968.15</ele><time>2025-11-26T17:53:06.000Z</time></trkpt>
        <trkpt lat="27.2046453" lon="103.1015721"><ele>2968.48</ele><time>2025-11-26T17:53:16.000Z</time></trkpt>
        <trkpt lat="27.204679" lon="103.1014693"><ele>2968.69</ele><time>2025-11-26T17:53:30.000Z</time></trkpt>
        <trkpt lat="27.2047224" lon="103.1013713"><ele>2968.98</ele><time>2025-11-26T17:53:44.000Z</time></trkpt>
        <trkpt lat="27.2047742" lon="103.1012762"><ele>2970.18</ele><time>2025-11-26T17:53:56.000Z</time></trkpt>
        <trkpt lat="27.2048191" lon="103.101176"><ele>2971.12</ele><time>2025-11-26T17:54:08.000Z</time></trkpt>
        <trkpt lat="27.2048734" lon="103.1010774"><ele>2972</ele><time>2025-11-26T17:54:20.000Z</time></trkpt>
        <trkpt lat="27.2049315" lon="103.1009912"><ele>2972.66</ele><time>2025-11-26T17:54:32.000Z</time></trkpt>
        <trkpt lat="27.2049682" lon="103.1008956"><ele>2974.28</ele><time>2025-11-26T17:54:44.000Z</time></trkpt>
        <trkpt lat="27.2049832" lon="103.1007935"><ele>2975.31</ele><time>2025-11-26T17:54:56.000Z</time></trkpt>
        <trkpt lat="27.2049944" lon="103.1006803"><ele>2976.22</ele><time>2025-11-26T17:55:08.000Z</time></trkpt>
        <trkpt lat="27.2050238" lon="103.1005814"><ele>2976.33</ele><time>2025-11-26T17:55:20.000Z</time></trkpt>
        <trkpt lat="27.2050513" lon="103.1004842"><ele>2976.92</ele><time>2025-11-26T17:55:30.000Z</time></trkpt>
        <trkpt lat="27.2050615" lon="103.1004017"><ele>2977.68</ele><time>2025-11-26T17:55:38.000Z</time></trkpt>
        <trkpt lat="27.205098" lon="103.1003105"><ele>2979.07</ele><time>2025-11-26T17:55:52.000Z</time></trkpt>
        <trkpt lat="27.2051429" lon="103.1002088"><ele>2979.25</ele><time>2025-11-26T17:56:08.000Z</time></trkpt>
        <trkpt lat="27.2051682" lon="103.1001048"><ele>2979.72</ele><time>2025-11-26T17:56:22.000Z</time></trkpt>
        <trkpt lat="27.2051912" lon="103.0999999"><ele>2980.76</ele><time>2025-11-26T17:56:38.000Z</time></trkpt>
        <trkpt lat="27.2052072" lon="103.0999493"><ele>2983.37</ele><time>2025-11-26T17:56:44.000Z</time></trkpt>
        <trkpt lat="27.2052376" lon="103.0998723"><ele>2985.05</ele><time>2025-11-26T17:57:02.000Z</time></trkpt>
        <trkpt lat="27.2052766" lon="103.0997758"><ele>2987.97</ele><time>2025-11-26T17:57:20.000Z</time></trkpt>
        <trkpt lat="27.2053075" lon="103.099675"><ele>2990.2</ele><time>2025-11-26T17:57:34.000Z</time></trkpt>
        <trkpt lat="27.2053307" lon="103.0995664"><ele>2992.05</ele><time>2025-11-26T17:57:58.000Z</time></trkpt>
        <trkpt lat="27.2053562" lon="103.0994552"><ele>2994.04</ele><time>2025-11-26T17:58:12.000Z</time></trkpt>
        <trkpt lat="27.2053847" lon="103.0993501"><ele>2995.14</ele><time>2025-11-26T17:58:28.000Z</time></trkpt>
        <trkpt lat="27.2054206" lon="103.0992466"><ele>2996.13</ele><time>2025-11-26T17:58:42.000Z</time></trkpt>
        <trkpt lat="27.205462" lon="103.0991472"><ele>2997.52</ele><time>2025-11-26T18:00:05.000Z</time></trkpt>
        <trkpt lat="27.205497" lon="103.0990533"><ele>3000.24</ele><time>2025-11-26T18:00:15.000Z</time></trkpt>
        <trkpt lat="27.205528" lon="103.098958"><ele>3001.84</ele><time>2025-11-26T18:00:27.000Z</time></trkpt>
        <trkpt lat="27.2055637" lon="103.0988546"><ele>3003.18</ele><time>2025-11-26T18:00:41.000Z</time></trkpt>
        <trkpt lat="27.205614" lon="103.0987555"><ele>3004.35</ele><time>2025-11-26T18:00:57.000Z</time></trkpt>
        <trkpt lat="27.2056715" lon="103.0986703"><ele>3006.16</ele><time>2025-11-26T18:01:15.000Z</time></trkpt>
        <trkpt lat="27.2057072" lon="103.0985669"><ele>3009.05</ele><time>2025-11-26T18:01:29.000Z</time></trkpt>
        <trkpt lat="27.2057489" lon="103.098465"><ele>3010.78</ele><time>2025-11-26T18:02:35.000Z</time></trkpt>
        <trkpt lat="27.2057828" lon="103.0983574"><ele>3012.97</ele><time>2025-11-26T18:02:45.000Z</time></trkpt>
        <trkpt lat="27.2058093" lon="103.098243"><ele>3014.43</ele><time>2025-11-26T18:02:57.000Z</time></trkpt>
        <trkpt lat="27.2058344" lon="103.0981389"><ele>3015.09</ele><time>2025-11-26T18:03:09.000Z</time></trkpt>
        <trkpt lat="27.2058529" lon="103.0980352"><ele>3015.55</ele><time>2025-11-26T18:03:59.000Z</time></trkpt>
        <trkpt lat="27.2059258" lon="103.0979809"><ele>3016.54</ele><time>2025-11-26T18:04:19.000Z</time></trkpt>
        <trkpt lat="27.2059883" lon="103.0979055"><ele>3018.7</ele><time>2025-11-26T18:04:39.000Z</time></trkpt>
        <trkpt lat="27.2060039" lon="103.0978024"><ele>3021.8</ele><time>2025-11-26T18:04:55.000Z</time></trkpt>
        <trkpt lat="27.2060391" lon="103.0976997"><ele>3023.3</ele><time>2025-11-26T18:05:11.000Z</time></trkpt>
        <trkpt lat="27.2060769" lon="103.0975934"><ele>3025.26</ele><time>2025-11-26T18:05:27.000Z</time></trkpt>
        <trkpt lat="27.2061162" lon="103.097496"><ele>3027.05</ele><time>2025-11-26T18:05:49.000Z</time></trkpt>
        <trkpt lat="27.2061305" lon="103.0973881"><ele>3029.12</ele><time>2025-11-26T18:06:07.000Z</time></trkpt>
        <trkpt lat="27.20614" lon="103.0972842"><ele>3031.39</ele><time>2025-11-26T18:06:35.000Z</time></trkpt>
        <trkpt lat="27.2061222" lon="103.0971837"><ele>3034.17</ele><time>2025-11-26T18:08:51.000Z</time></trkpt>
        <trkpt lat="27.2061879" lon="103.0971131"><ele>3038.01</ele><time>2025-11-26T18:09:25.000Z</time></trkpt>
        <trkpt lat="27.2062325" lon="103.0970158"><ele>3040.33</ele><time>2025-11-26T18:09:45.000Z</time></trkpt>
        <trkpt lat="27.206275" lon="103.09691"><ele>3043.41</ele><time>2025-11-26T18:10:01.000Z</time></trkpt>
        <trkpt lat="27.2063195" lon="103.0968153"><ele>3044.48</ele><time>2025-11-26T18:10:15.000Z</time></trkpt>
        <trkpt lat="27.2063761" lon="103.0967255"><ele>3046.37</ele><time>2025-11-26T18:10:39.000Z</time></trkpt>
        <trkpt lat="27.2064384" lon="103.0966493"><ele>3047.94</ele><time>2025-11-26T18:10:51.000Z</time></trkpt>
        <trkpt lat="27.2064557" lon="103.0965516"><ele>3048.49</ele><time>2025-11-26T18:11:09.000Z</time></trkpt>
        <trkpt lat="27.2064698" lon="103.0964495"><ele>3050.64</ele><time>2025-11-26T18:11:29.000Z</time></trkpt>
        <trkpt lat="27.206495" lon="103.0963412"><ele>3052.89</ele><time>2025-11-26T18:11:49.000Z</time></trkpt>
        <trkpt lat="27.2065209" lon="103.0962404"><ele>3055.91</ele><time>2025-11-26T18:13:13.000Z</time></trkpt>
        <trkpt lat="27.2065725" lon="103.0961539"><ele>3059.21</ele><time>2025-11-26T18:13:37.000Z</time></trkpt>
        <trkpt lat="27.2065927" lon="103.0960561"><ele>3062.13</ele><time>2025-11-26T18:14:01.000Z</time></trkpt>
        <trkpt lat="27.2066045" lon="103.0959515"><ele>3066.58</ele><time>2025-11-26T18:14:17.000Z</time></trkpt>
        <trkpt lat="27.2066393" lon="103.0958533"><ele>3069.67</ele><time>2025-11-26T18:14:43.000Z</time></trkpt>
        <trkpt lat="27.2067195" lon="103.0957958"><ele>3072.32</ele><time>2025-11-26T18:15:01.000Z</time></trkpt>
        <trkpt lat="27.2068056" lon="103.09574"><ele>3074.21</ele><time>2025-11-26T18:15:31.000Z</time></trkpt>
        <trkpt lat="27.2068632" lon="103.095662"><ele>3077.19</ele><time>2025-11-26T18:16:03.000Z</time></trkpt>
        <trkpt lat="27.2069155" lon="103.0955792"><ele>3080.69</ele><time>2025-11-26T18:19:41.000Z</time></trkpt>
        <trkpt lat="27.2070067" lon="103.0955853"><ele>3083.58</ele><time>2025-11-26T18:21:01.000Z</time></trkpt>
        <trkpt lat="27.2071014" lon="103.0955749"><ele>3087.6</ele><time>2025-11-26T18:22:07.000Z</time></trkpt>
        <trkpt lat="27.207134" lon="103.0954751"><ele>3092.45</ele><time>2025-11-26T18:22:27.000Z</time></trkpt>
        <trkpt lat="27.2071576" lon="103.0953741"><ele>3097.9</ele><time>2025-11-26T18:22:55.000Z</time></trkpt>
        <trkpt lat="27.2072132" lon="103.095267"><ele>3103.51</ele><time>2025-11-26T18:23:38.000Z</time></trkpt>
        <trkpt lat="27.2072911" lon="103.0952788"><ele>3108.25</ele><time>2025-11-26T18:24:34.000Z</time></trkpt>
        <trkpt lat="27.2073589" lon="103.0953532"><ele>3112.71</ele><time>2025-11-26T18:24:48.000Z</time></trkpt>
        <trkpt lat="27.2074257" lon="103.0954489"><ele>3116.16</ele><time>2025-11-26T18:25:08.000Z</time></trkpt>
        <trkpt lat="27.2074966" lon="103.0955307"><ele>3119.8</ele><time>2025-11-26T18:25:34.000Z</time></trkpt>
        <trkpt lat="27.2075588" lon="103.0956224"><ele>3123.34</ele><time>2025-11-26T18:26:00.000Z</time></trkpt>
        <trkpt lat="27.2076434" lon="103.0956729"><ele>3127.06</ele><time>2025-11-26T18:26:34.000Z</time></trkpt>
        <trkpt lat="27.2076978" lon="103.0957511"><ele>3130.24</ele><time>2025-11-26T18:26:52.000Z</time></trkpt>
        <trkpt lat="27.2077485" lon="103.0958409"><ele>3133.19</ele><time>2025-11-26T18:27:14.000Z</time></trkpt>
        <trkpt lat="27.2078091" lon="103.0959318"><ele>3135.99</ele><time>2025-11-26T18:27:44.000Z</time></trkpt>
        <trkpt lat="27.2078501" lon="103.0960272"><ele>3139.56</ele><time>2025-11-26T18:28:00.000Z</time></trkpt>
        <trkpt lat="27.2078827" lon="103.0961245"><ele>3143.09</ele><time>2025-11-26T18:28:24.000Z</time></trkpt>
        <trkpt lat="27.2079233" lon="103.0962203"><ele>3146.12</ele><time>2025-11-26T18:29:00.000Z</time></trkpt>
        <trkpt lat="27.2079641" lon="103.0963197"><ele>3149.53</ele><time>2025-11-26T18:29:20.000Z</time></trkpt>
        <trkpt lat="27.2079742" lon="103.0964253"><ele>3154.23</ele><time>2025-11-26T18:45:54.000Z</time></trkpt>
        <trkpt lat="27.2080174" lon="103.0965211"><ele>3160.47</ele><time>2025-11-26T18:46:16.000Z</time></trkpt>
        <trkpt lat="27.2080498" lon="103.0966194"><ele>3164.82</ele><time>2025-11-26T18:46:38.000Z</time></trkpt>
        <trkpt lat="27.2080822" lon="103.0967174"><ele>3169.28</ele><time>2025-11-26T18:46:58.000Z</time></trkpt>
        <trkpt lat="27.208126" lon="103.0968121"><ele>3173.3</ele><time>2025-11-26T18:47:22.000Z</time></trkpt>
        <trkpt lat="27.2082015" lon="103.0968662"><ele>3176.45</ele><time>2025-11-26T18:48:04.000Z</time></trkpt>
        <trkpt lat="27.2082778" lon="103.0969334"><ele>3180.75</ele><time>2025-11-26T18:48:36.000Z</time></trkpt>
        <trkpt lat="27.2083363" lon="103.0970147"><ele>3185.38</ele><time>2025-11-26T18:49:06.000Z</time></trkpt>
        <trkpt lat="27.2083882" lon="103.0971013"><ele>3189.82</ele><time>2025-11-26T18:49:26.000Z</time></trkpt>
        <trkpt lat="27.2084363" lon="103.0971893"><ele>3195.03</ele><time>2025-11-26T18:49:56.000Z</time></trkpt>
        <trkpt lat="27.2084812" lon="103.0972824"><ele>3199.69</ele><time>2025-11-26T18:50:30.000Z</time></trkpt>
        <trkpt lat="27.2085241" lon="103.0973748"><ele>3203.31</ele><time>2025-11-26T18:51:20.000Z</time></trkpt>
        <trkpt lat="27.208552" lon="103.0974788"><ele>3207.17</ele><time>2025-11-26T18:51:50.000Z</time></trkpt>
        <trkpt lat="27.208627" lon="103.097504"><ele>3210.72</ele><time>2025-11-26T18:52:46.000Z</time></trkpt>
        <trkpt lat="27.2086931" lon="103.0974405"><ele>3214.28</ele><time>2025-11-26T18:53:20.000Z</time></trkpt>
        <trkpt lat="27.2087042" lon="103.0973278"><ele>3216.99</ele><time>2025-11-26T18:53:34.000Z</time></trkpt>
        <trkpt lat="27.2087362" lon="103.097219"><ele>3218.39</ele><time>2025-11-26T18:53:48.000Z</time></trkpt>
        <trkpt lat="27.208777" lon="103.0971164"><ele>3220.17</ele><time>2025-11-26T18:54:08.000Z</time></trkpt>
        <trkpt lat="27.2088219" lon="103.0970147"><ele>3221.63</ele><time>2025-11-26T18:54:26.000Z</time></trkpt>
        <trkpt lat="27.2088536" lon="103.0969123"><ele>3223.1</ele><time>2025-11-26T18:54:50.000Z</time></trkpt>
        <trkpt lat="27.2088814" lon="103.0968136"><ele>3224.98</ele><time>2025-11-26T18:55:12.000Z</time></trkpt>
        <trkpt lat="27.2089245" lon="103.0967174"><ele>3227.97</ele><time>2025-11-26T18:55:34.000Z</time></trkpt>
        <trkpt lat="27.2089642" lon="103.0966221"><ele>3230.18</ele><time>2025-11-26T18:56:04.000Z</time></trkpt>
        <trkpt lat="27.2090073" lon="103.0965223"><ele>3233.1</ele><time>2025-11-26T18:56:22.000Z</time></trkpt>
        <trkpt lat="27.2090385" lon="103.0964198"><ele>3236.34</ele><time>2025-11-26T18:56:42.000Z</time></trkpt>
        <trkpt lat="27.2091001" lon="103.0963351"><ele>3239.22</ele><time>2025-11-26T18:57:00.000Z</time></trkpt>
        <trkpt lat="27.2091763" lon="103.0962739"><ele>3241.82</ele><time>2025-11-26T18:57:22.000Z</time></trkpt>
        <trkpt lat="27.2092542" lon="103.0962127"><ele>3243.56</ele><time>2025-11-26T18:57:40.000Z</time></trkpt>
        <trkpt lat="27.2093402" lon="103.0961591"><ele>3245.39</ele><time>2025-11-26T18:58:00.000Z</time></trkpt>
        <trkpt lat="27.2094247" lon="103.0961063"><ele>3248.06</ele><time>2025-11-26T18:58:28.000Z</time></trkpt>
        <trkpt lat="27.209486" lon="103.0960215"><ele>3251.81</ele><time>2025-11-26T18:59:26.000Z</time></trkpt>
        <trkpt lat="27.2095251" lon="103.0959194"><ele>3256.94</ele><time>2025-11-26T18:59:46.000Z</time></trkpt>
        <trkpt lat="27.2095594" lon="103.0958204"><ele>3261.19</ele><time>2025-11-26T19:00:04.000Z</time></trkpt>
        <trkpt lat="27.2096054" lon="103.0957233"><ele>3263.95</ele><time>2025-11-26T19:00:24.000Z</time></trkpt>
        <trkpt lat="27.2096427" lon="103.0956221"><ele>3266.03</ele><time>2025-11-26T19:00:52.000Z</time></trkpt>
        <trkpt lat="27.2096942" lon="103.0955342"><ele>3269.17</ele><time>2025-11-26T19:01:50.000Z</time></trkpt>
        <trkpt lat="27.2097535" lon="103.0954483"><ele>3271.88</ele><time>2025-11-26T19:02:14.000Z</time></trkpt>
        <trkpt lat="27.2098166" lon="103.0953677"><ele>3275.26</ele><time>2025-11-26T19:02:42.000Z</time></trkpt>
        <trkpt lat="27.2098841" lon="103.0952879"><ele>3278.36</ele><time>2025-11-26T19:03:14.000Z</time></trkpt>
        <trkpt lat="27.2099244" lon="103.0951956"><ele>3282.2</ele><time>2025-11-26T19:03:46.000Z</time></trkpt>
        <trkpt lat="27.2099553" lon="103.095096"><ele>3286.07</ele><time>2025-11-26T19:04:16.000Z</time></trkpt>
        <trkpt lat="27.2100029" lon="103.0950076"><ele>3289.71</ele><time>2025-11-26T19:05:14.000Z</time></trkpt>
        <trkpt lat="27.2100383" lon="103.0949146"><ele>3294.16</ele><time>2025-11-26T19:05:30.000Z</time></trkpt>
        <trkpt lat="27.2100921" lon="103.0948353"><ele>3296.47</ele><time>2025-11-26T19:05:58.000Z</time></trkpt>
        <trkpt lat="27.2101392" lon="103.0947502"><ele>3298.72</ele><time>2025-11-26T19:06:24.000Z</time></trkpt>
        <trkpt lat="27.2101833" lon="103.0946608"><ele>3302.14</ele><time>2025-11-26T19:06:52.000Z</time></trkpt>
        <trkpt lat="27.2102257" lon="103.0945663"><ele>3304.98</ele><time>2025-11-26T19:07:12.000Z</time></trkpt>
        <trkpt lat="27.2102718" lon="103.0944735"><ele>3308.08</ele><time>2025-11-26T19:07:56.000Z</time></trkpt>
        <trkpt lat="27.2103387" lon="103.0944045"><ele>3311.71</ele><time>2025-11-26T19:08:24.000Z</time></trkpt>
        <trkpt lat="27.2103727" lon="103.0943147"><ele>3315.35</ele><time>2025-11-26T19:08:46.000Z</time></trkpt>
        <trkpt lat="27.210396" lon="103.094215"><ele>3318.05</ele><time>2025-11-26T19:09:10.000Z</time></trkpt>
        <trkpt lat="27.2104249" lon="103.0941157"><ele>3320.87</ele><time>2025-11-26T19:09:28.000Z</time></trkpt>
        <trkpt lat="27.2104429" lon="103.0940116"><ele>3323.11</ele><time>2025-11-26T19:09:56.000Z</time></trkpt>
        <trkpt lat="27.2104483" lon="103.0939088"><ele>3326.64</ele><time>2025-11-26T19:10:34.000Z</time></trkpt>
        <trkpt lat="27.2104515" lon="103.0938052"><ele>3332.11</ele><time>2025-11-26T19:10:56.000Z</time></trkpt>
        <trkpt lat="27.2104892" lon="103.0937102"><ele>3336.92</ele><time>2025-11-26T19:11:40.000Z</time></trkpt>
        <trkpt lat="27.2105099" lon="103.0936112"><ele>3340.48</ele><time>2025-11-26T19:12:00.000Z</time></trkpt>
        <trkpt lat="27.210501" lon="103.0935065"><ele>3344.24</ele><time>2025-11-26T19:13:06.000Z</time></trkpt>
        <trkpt lat="27.2104528" lon="103.0934084"><ele>3348.5</ele><time>2025-11-26T19:13:18.000Z</time></trkpt>
        <trkpt lat="27.2104109" lon="103.0933079"><ele>3351.19</ele><time>2025-11-26T19:13:40.000Z</time></trkpt>
        <trkpt lat="27.2103881" lon="103.0932069"><ele>3354.69</ele><time>2025-11-26T19:14:00.000Z</time></trkpt>
        <trkpt lat="27.2103761" lon="103.0931059"><ele>3357.68</ele><time>2025-11-26T19:14:26.000Z</time></trkpt>
        <trkpt lat="27.2103792" lon="103.0930025"><ele>3361.25</ele><time>2025-11-26T19:15:00.000Z</time></trkpt>
        <trkpt lat="27.2104433" lon="103.0929314"><ele>3363.16</ele><time>2025-11-26T19:15:38.000Z</time></trkpt>
        <trkpt lat="27.2105465" lon="103.0929938"><ele>3364.39</ele><time>2025-11-26T19:17:09.000Z</time></trkpt>
        <trkpt lat="27.2105989" lon="103.0930801"><ele>3368.03</ele><time>2025-11-26T19:17:27.000Z</time></trkpt>
        <trkpt lat="27.210592" lon="103.0929716"><ele>3370.51</ele><time>2025-11-26T19:18:31.000Z</time></trkpt>
        <trkpt lat="27.2106354" lon="103.0928812"><ele>3374.51</ele><time>2025-11-26T19:18:57.000Z</time></trkpt>
        <trkpt lat="27.2106807" lon="103.0927895"><ele>3378.07</ele><time>2025-11-26T19:19:29.000Z</time></trkpt>
        <trkpt lat="27.210653" lon="103.0926946"><ele>3381.56</ele><time>2025-11-26T19:20:05.000Z</time></trkpt>
        <trkpt lat="27.2106245" lon="103.0925923"><ele>3387.2</ele><time>2025-11-26T19:22:49.000Z</time></trkpt>
        <trkpt lat="27.2105843" lon="103.0924895"><ele>3391</ele><time>2025-11-26T19:23:15.000Z</time></trkpt>
        <trkpt lat="27.2105374" lon="103.0923966"><ele>3394.24</ele><time>2025-11-26T19:23:35.000Z</time></trkpt>
        <trkpt lat="27.2105145" lon="103.0922961"><ele>3397.84</ele><time>2025-11-26T19:23:57.000Z</time></trkpt>
        <trkpt lat="27.2104813" lon="103.0921991"><ele>3401.12</ele><time>2025-11-26T19:24:51.000Z</time></trkpt>
        <trkpt lat="27.210427" lon="103.0921131"><ele>3404.33</ele><time>2025-11-26T19:25:19.000Z</time></trkpt>
        <trkpt lat="27.2104113" lon="103.0920142"><ele>3407.37</ele><time>2025-11-26T19:26:01.000Z</time></trkpt>
        <trkpt lat="27.2103768" lon="103.0919215"><ele>3411.95</ele><time>2025-11-26T19:26:27.000Z</time></trkpt>
        <trkpt lat="27.2103315" lon="103.0918266"><ele>3416.43</ele><time>2025-11-26T19:26:51.000Z</time></trkpt>
        <trkpt lat="27.2102762" lon="103.0917371"><ele>3420.53</ele><time>2025-11-26T19:27:11.000Z</time></trkpt>
        <trkpt lat="27.2102016" lon="103.0916609"><ele>3424.61</ele><time>2025-11-26T19:27:25.000Z</time></trkpt>
        <trkpt lat="27.2101105" lon="103.0916381"><ele>3426.78</ele><time>2025-11-26T19:28:15.000Z</time></trkpt>
        <trkpt lat="27.2100406" lon="103.0917466"><ele>3428.95</ele><time>2025-11-26T19:34:54.000Z</time></trkpt>
        <trkpt lat="27.2099945" lon="103.0918362"><ele>3428.42</ele><time>2025-11-26T19:35:02.000Z</time></trkpt>
        <trkpt lat="27.2099343" lon="103.0919305"><ele>3427.23</ele><time>2025-11-26T19:35:12.000Z</time></trkpt>
        <trkpt lat="27.2098638" lon="103.0919994"><ele>3426.38</ele><time>2025-11-26T19:35:22.000Z</time></trkpt>
        <trkpt lat="27.2099207" lon="103.0919055"><ele>3425.98</ele><time>2025-11-26T19:41:38.000Z</time></trkpt>
        <trkpt lat="27.2099752" lon="103.0918091"><ele>3427.15</ele><time>2025-11-26T19:41:56.000Z</time></trkpt>
        <trkpt lat="27.2100323" lon="103.0917164"><ele>3428.4</ele><time>2025-11-26T19:42:06.000Z</time></trkpt>
        <trkpt lat="27.2100983" lon="103.0916313"><ele>3429.75</ele><time>2025-11-26T19:42:16.000Z</time></trkpt>
        <trkpt lat="27.2101424" lon="103.0915328"><ele>3430.79</ele><time>2025-11-26T19:50:19.000Z</time></trkpt>
        <trkpt lat="27.2101515" lon="103.0914221"><ele>3430.61</ele><time>2025-11-26T19:50:35.000Z</time></trkpt>
        <trkpt lat="27.2101568" lon="103.091367"><ele>3431.94</ele><time>2025-11-26T19:50:43.000Z</time></trkpt>
        <trkpt lat="27.210233" lon="103.0913632"><ele>3433.24</ele><time>2025-11-26T19:51:11.000Z</time></trkpt>
        <trkpt lat="27.2103314" lon="103.0913541"><ele>3435.82</ele><time>2025-11-26T19:51:37.000Z</time></trkpt>
        <trkpt lat="27.2104407" lon="103.0913448"><ele>3439.82</ele><time>2025-11-26T19:52:59.000Z</time></trkpt>
        <trkpt lat="27.2105007" lon="103.0912585"><ele>3444.33</ele><time>2025-11-26T19:54:47.000Z</time></trkpt>
        <trkpt lat="27.210576" lon="103.0911888"><ele>3449.22</ele><time>2025-11-26T19:55:09.000Z</time></trkpt>
        <trkpt lat="27.2106622" lon="103.0911403"><ele>3452.09</ele><time>2025-11-26T19:55:27.000Z</time></trkpt>
        <trkpt lat="27.2107411" lon="103.0910672"><ele>3454.44</ele><time>2025-11-26T19:55:53.000Z</time></trkpt>
        <trkpt lat="27.2108095" lon="103.0909873"><ele>3455.78</ele><time>2025-11-26T19:56:03.000Z</time></trkpt>
        <trkpt lat="27.2108853" lon="103.0909162"><ele>3456.91</ele><time>2025-11-26T19:56:17.000Z</time></trkpt>
        <trkpt lat="27.2109425" lon="103.0908256"><ele>3458.75</ele><time>2025-11-26T19:56:35.000Z</time></trkpt>
        <trkpt lat="27.2109965" lon="103.0907373"><ele>3461.04</ele><time>2025-11-26T19:56:51.000Z</time></trkpt>
        <trkpt lat="27.2110447" lon="103.0906429"><ele>3464.43</ele><time>2025-11-26T19:57:03.000Z</time></trkpt>
        <trkpt lat="27.2111092" lon="103.0905712"><ele>3467.26</ele><time>2025-11-26T19:57:21.000Z</time></trkpt>
        <trkpt lat="27.2111552" lon="103.0904866"><ele>3470.3</ele><time>2025-11-26T19:57:39.000Z</time></trkpt>
        <trkpt lat="27.2111963" lon="103.0903909"><ele>3473.24</ele><time>2025-11-26T19:57:53.000Z</time></trkpt>
        <trkpt lat="27.2112141" lon="103.0902879"><ele>3476.05</ele><time>2025-11-26T19:58:11.000Z</time></trkpt>
        <trkpt lat="27.2112448" lon="103.090189"><ele>3479.81</ele><time>2025-11-26T19:58:25.000Z</time></trkpt>
        <trkpt lat="27.2112842" lon="103.0900905"><ele>3482.4</ele><time>2025-11-26T19:58:39.000Z</time></trkpt>
        <trkpt lat="27.211283" lon="103.0899909"><ele>3484.38</ele><time>2025-11-26T19:59:07.000Z</time></trkpt>
        <trkpt lat="27.2112994" lon="103.0898937"><ele>3487.55</ele><time>2025-11-26T19:59:35.000Z</time></trkpt>
        <trkpt lat="27.2112894" lon="103.089793"><ele>3490.15</ele><time>2025-11-26T20:02:59.000Z</time></trkpt>
        <trkpt lat="27.2112498" lon="103.0897021"><ele>3494.83</ele><time>2025-11-26T20:05:07.000Z</time></trkpt>
        <trkpt lat="27.2112744" lon="103.0895977"><ele>3499.4</ele><time>2025-11-26T20:05:35.000Z</time></trkpt>
        <trkpt lat="27.2113531" lon="103.0895485"><ele>3502.89</ele><time>2025-11-26T20:06:27.000Z</time></trkpt>
        <trkpt lat="27.2114117" lon="103.089466"><ele>3508.01</ele><time>2025-11-26T20:07:33.000Z</time></trkpt>
        <trkpt lat="27.2114995" lon="103.089491"><ele>3515.81</ele><time>2025-11-26T20:08:27.000Z</time></trkpt>
        <trkpt lat="27.2115769" lon="103.0894485"><ele>3522.86</ele><time>2025-11-26T20:09:13.000Z</time></trkpt>
        <trkpt lat="27.2115732" lon="103.0893577"><ele>3530.06</ele><time>2025-11-26T20:09:37.000Z</time></trkpt>
        <trkpt lat="27.2115613" lon="103.08925"><ele>3533.81</ele><time>2025-11-26T20:10:07.000Z</time></trkpt>
        <trkpt lat="27.2115459" lon="103.0891272"><ele>3538.85</ele><time>2025-11-26T20:11:33.000Z</time></trkpt>
        <trkpt lat="27.2115961" lon="103.0890386"><ele>3542.35</ele><time>2025-11-26T20:11:59.000Z</time></trkpt>
        <trkpt lat="27.2116144" lon="103.0889382"><ele>3546.36</ele><time>2025-11-26T20:12:31.000Z</time></trkpt>
        <trkpt lat="27.2116474" lon="103.0888397"><ele>3549.7</ele><time>2025-11-26T20:13:03.000Z</time></trkpt>
        <trkpt lat="27.2116873" lon="103.0887441"><ele>3551.11</ele><time>2025-11-26T20:13:31.000Z</time></trkpt>
        <trkpt lat="27.2117175" lon="103.0886426"><ele>3555.1</ele><time>2025-11-26T20:13:55.000Z</time></trkpt>
        <trkpt lat="27.2117395" lon="103.0885413"><ele>3559.58</ele><time>2025-11-26T20:14:17.000Z</time></trkpt>
        <trkpt lat="27.2117457" lon="103.0884376"><ele>3563.03</ele><time>2025-11-26T20:14:53.000Z</time></trkpt>
        <trkpt lat="27.2117633" lon="103.0883391"><ele>3567.02</ele><time>2025-11-26T20:17:13.000Z</time></trkpt>
        <trkpt lat="27.2118346" lon="103.0882668"><ele>3569.93</ele><time>2025-11-26T20:23:10.000Z</time></trkpt>
        <trkpt lat="27.2118575" lon="103.088163"><ele>3573.01</ele><time>2025-11-26T20:23:36.000Z</time></trkpt>
        <trkpt lat="27.2118727" lon="103.0880558"><ele>3575.12</ele><time>2025-11-26T20:24:10.000Z</time></trkpt>
        <trkpt lat="27.2119212" lon="103.087964"><ele>3577.1</ele><time>2025-11-26T20:24:24.000Z</time></trkpt>
        <trkpt lat="27.2119731" lon="103.0878757"><ele>3579.5</ele><time>2025-11-26T20:24:42.000Z</time></trkpt>
        <trkpt lat="27.2120159" lon="103.0877816"><ele>3581.52</ele><time>2025-11-26T20:24:58.000Z</time></trkpt>
        <trkpt lat="27.2120496" lon="103.0876848"><ele>3583.63</ele><time>2025-11-26T20:25:16.000Z</time></trkpt>
        <trkpt lat="27.2120969" lon="103.0875986"><ele>3586.77</ele><time>2025-11-26T20:25:38.000Z</time></trkpt>
        <trkpt lat="27.2121661" lon="103.0875289"><ele>3590</ele><time>2025-11-26T20:25:58.000Z</time></trkpt>
        <trkpt lat="27.2122457" lon="103.0874692"><ele>3591.94</ele><time>2025-11-26T20:26:20.000Z</time></trkpt>
        <trkpt lat="27.2122685" lon="103.0873785"><ele>3593.15</ele><time>2025-11-26T20:26:36.000Z</time></trkpt>
        <trkpt lat="27.2122859" lon="103.0872798"><ele>3593.95</ele><time>2025-11-26T20:26:50.000Z</time></trkpt>
        <trkpt lat="27.2122788" lon="103.0871675"><ele>3596.04</ele><time>2025-11-26T20:27:12.000Z</time></trkpt>
        <trkpt lat="27.2122973" lon="103.0870633"><ele>3597.73</ele><time>2025-11-26T20:27:24.000Z</time></trkpt>
        <trkpt lat="27.2123273" lon="103.0869632"><ele>3599.44</ele><time>2025-11-26T20:27:36.000Z</time></trkpt>
        <trkpt lat="27.212389" lon="103.0868805"><ele>3600.66</ele><time>2025-11-26T20:27:50.000Z</time></trkpt>
        <trkpt lat="27.2124192" lon="103.0867846"><ele>3602.06</ele><time>2025-11-26T20:28:20.000Z</time></trkpt>
        <trkpt lat="27.2124507" lon="103.0866883"><ele>3604.1</ele><time>2025-11-26T20:28:36.000Z</time></trkpt>
        <trkpt lat="27.2124875" lon="103.0865951"><ele>3605.68</ele><time>2025-11-26T20:28:54.000Z</time></trkpt>
        <trkpt lat="27.2125325" lon="103.0864974"><ele>3607.23</ele><time>2025-11-26T20:29:10.000Z</time></trkpt>
        <trkpt lat="27.2125581" lon="103.0863954"><ele>3608.4</ele><time>2025-11-26T20:29:42.000Z</time></trkpt>
        <trkpt lat="27.2125357" lon="103.0862938"><ele>3610.86</ele><time>2025-11-26T20:30:50.000Z</time></trkpt>
        <trkpt lat="27.2125049" lon="103.0861927"><ele>3614.14</ele><time>2025-11-26T20:35:06.000Z</time></trkpt>
        <trkpt lat="27.2125128" lon="103.0860836"><ele>3618.13</ele><time>2025-11-26T20:35:48.000Z</time></trkpt>
        <trkpt lat="27.2125545" lon="103.0859918"><ele>3620.86</ele><time>2025-11-26T20:36:14.000Z</time></trkpt>
        <trkpt lat="27.212623" lon="103.085921"><ele>3625.26</ele><time>2025-11-26T20:37:00.000Z</time></trkpt>
        <trkpt lat="27.2126739" lon="103.0858343"><ele>3631.78</ele><time>2025-11-26T20:37:36.000Z</time></trkpt>
        <trkpt lat="27.2127403" lon="103.0857575"><ele>3637.29</ele><time>2025-11-26T20:38:10.000Z</time></trkpt>
        <trkpt lat="27.2128098" lon="103.0856807"><ele>3641.37</ele><time>2025-11-26T20:39:32.000Z</time></trkpt>
        <trkpt lat="27.2128896" lon="103.0856275"><ele>3644.51</ele><time>2025-11-26T20:40:18.000Z</time></trkpt>
        <trkpt lat="27.212909" lon="103.0855312"><ele>3648.54</ele><time>2025-11-26T20:40:48.000Z</time></trkpt>
        <trkpt lat="27.2129578" lon="103.0854418"><ele>3654.09</ele><time>2025-11-26T20:41:28.000Z</time></trkpt>
        <trkpt lat="27.2130072" lon="103.0853498"><ele>3658.21</ele><time>2025-11-26T20:43:10.000Z</time></trkpt>
        <trkpt lat="27.2130682" lon="103.0852712"><ele>3663.54</ele><time>2025-11-26T20:43:50.000Z</time></trkpt>
        <trkpt lat="27.2131207" lon="103.0851861"><ele>3668.29</ele><time>2025-11-26T20:44:46.000Z</time></trkpt>
        <trkpt lat="27.2131854" lon="103.0851085"><ele>3672.74</ele><time>2025-11-26T20:45:18.000Z</time></trkpt>
        <trkpt lat="27.2132028" lon="103.0850133"><ele>3676.89</ele><time>2025-11-26T20:45:48.000Z</time></trkpt>
        <trkpt lat="27.2131729" lon="103.0849076"><ele>3681.18</ele><time>2025-11-26T20:50:04.000Z</time></trkpt>
        <trkpt lat="27.2131091" lon="103.0848284"><ele>3685.81</ele><time>2025-11-26T20:51:36.000Z</time></trkpt>
        <trkpt lat="27.2130351" lon="103.0847707"><ele>3690.77</ele><time>2025-11-26T20:52:02.000Z</time></trkpt>
        <trkpt lat="27.2129651" lon="103.0847036"><ele>3695.63</ele><time>2025-11-26T20:52:46.000Z</time></trkpt>
        <trkpt lat="27.2128881" lon="103.0846476"><ele>3700.27</ele><time>2025-11-26T20:54:02.000Z</time></trkpt>
        <trkpt lat="27.2128319" lon="103.0845574"><ele>3704.99</ele><time>2025-11-26T20:55:08.000Z</time></trkpt>
        <trkpt lat="27.2128095" lon="103.0844479"><ele>3707.14</ele><time>2025-11-26T20:56:18.000Z</time></trkpt>
        <trkpt lat="27.2127211" lon="103.0844298"><ele>3708.55</ele><time>2025-11-26T20:57:40.000Z</time></trkpt>
        <trkpt lat="27.2126511" lon="103.0843569"><ele>3710.74</ele><time>2025-11-26T20:57:54.000Z</time></trkpt>
        <trkpt lat="27.2126985" lon="103.0844644"><ele>3713.22</ele><time>2025-11-26T21:00:04.000Z</time></trkpt>
        <trkpt lat="27.2126828" lon="103.0845694"><ele>3712.63</ele><time>2025-11-26T21:00:16.000Z</time></trkpt>
        <trkpt lat="27.2127624" lon="103.084487"><ele>3712.15</ele><time>2025-11-26T21:03:18.000Z</time></trkpt>
        <trkpt lat="27.2128729" lon="103.0844894"><ele>3712.81</ele><time>2025-11-26T21:03:26.000Z</time></trkpt>
        <trkpt lat="27.2129226" lon="103.0844951"><ele>3712.6</ele><time>2025-11-26T21:03:34.000Z</time></trkpt>
        <trkpt lat="27.2128062" lon="103.0845036"><ele>3711.94</ele><time>2025-11-26T21:10:59.000Z</time></trkpt>
        <trkpt lat="27.2128101" lon="103.0846075"><ele>3712.77</ele><time>2025-11-26T21:11:17.000Z</time></trkpt>
        <trkpt lat="27.2127553" lon="103.0845423"><ele>3712.01</ele><time>2025-11-26T21:11:39.000Z</time></trkpt>
        <trkpt lat="27.2127073" lon="103.0844984"><ele>3711.5</ele><time>2025-11-26T21:11:47.000Z</time></trkpt>
        <trkpt lat="27.2126569" lon="103.0843699"><ele>3711.9</ele><time>2025-11-26T21:13:23.000Z</time></trkpt>
        <trkpt lat="27.2126168" lon="103.0842784"><ele>3713.68</ele><time>2025-11-26T21:13:33.000Z</time></trkpt>
        <trkpt lat="27.2126124" lon="103.0841717"><ele>3714.27</ele><time>2025-11-26T21:13:45.000Z</time></trkpt>
        <trkpt lat="27.2125905" lon="103.0840657"><ele>3714.05</ele><time>2025-11-26T21:13:55.000Z</time></trkpt>
        <trkpt lat="27.2125577" lon="103.083957"><ele>3713.98</ele><time>2025-11-26T21:14:07.000Z</time></trkpt>
        <trkpt lat="27.212648" lon="103.0839467"><ele>3713.12</ele><time>2025-11-26T21:15:07.000Z</time></trkpt>
        <trkpt lat="27.2126968" lon="103.0838515"><ele>3713.36</ele><time>2025-11-26T21:15:17.000Z</time></trkpt>
        <trkpt lat="27.2126692" lon="103.0837439"><ele>3713.77</ele><time>2025-11-26T21:15:27.000Z</time></trkpt>
        <trkpt lat="27.2126405" lon="103.0836813"><ele>3714.52</ele><time>2025-11-26T21:15:35.000Z</time></trkpt>
        <trkpt lat="27.2125555" lon="103.0836544"><ele>3714.98</ele><time>2025-11-26T21:16:01.000Z</time></trkpt>
        <trkpt lat="27.2124492" lon="103.0836488"><ele>3716.45</ele><time>2025-11-26T21:16:11.000Z</time></trkpt>
        <trkpt lat="27.2124054" lon="103.083657"><ele>3718.2</ele><time>2025-11-26T21:16:17.000Z</time></trkpt>
        <trkpt lat="27.2123228" lon="103.0836635"><ele>3718.81</ele><time>2025-11-26T21:16:43.000Z</time></trkpt>
        <trkpt lat="27.2122287" lon="103.0836274"><ele>3719.79</ele><time>2025-11-26T21:16:53.000Z</time></trkpt>
        <trkpt lat="27.2121394" lon="103.0835687"><ele>3720.51</ele><time>2025-11-26T21:17:17.000Z</time></trkpt>
        <trkpt lat="27.2120646" lon="103.0835001"><ele>3721.41</ele><time>2025-11-26T21:17:47.000Z</time></trkpt>
        <trkpt lat="27.2120059" lon="103.0834194"><ele>3722.55</ele><time>2025-11-26T21:18:31.000Z</time></trkpt>
        <trkpt lat="27.2119518" lon="103.0833311"><ele>3722.82</ele><time>2025-11-26T21:19:01.000Z</time></trkpt>
        <trkpt lat="27.2119036" lon="103.0832374"><ele>3723.84</ele><time>2025-11-26T21:19:19.000Z</time></trkpt>
        <trkpt lat="27.2118527" lon="103.0831495"><ele>3725.55</ele><time>2025-11-26T21:19:37.000Z</time></trkpt>
        <trkpt lat="27.2118206" lon="103.0830542"><ele>3727.24</ele><time>2025-11-26T21:19:59.000Z</time></trkpt>
        <trkpt lat="27.211823" lon="103.0829476"><ele>3727.66</ele><time>2025-11-26T21:20:59.000Z</time></trkpt>
        <trkpt lat="27.2118281" lon="103.0828383"><ele>3728.02</ele><time>2025-11-26T21:21:13.000Z</time></trkpt>
        <trkpt lat="27.2118268" lon="103.0827789"><ele>3727.45</ele><time>2025-11-26T21:21:19.000Z</time></trkpt>
        <trkpt lat="27.2118051" lon="103.0826826"><ele>3726.73</ele><time>2025-11-26T21:21:37.000Z</time></trkpt>
        <trkpt lat="27.2117876" lon="103.0825722"><ele>3726.11</ele><time>2025-11-26T21:22:19.000Z</time></trkpt>
        <trkpt lat="27.2117726" lon="103.0824645"><ele>3724.89</ele><time>2025-11-26T21:22:53.000Z</time></trkpt>
        <trkpt lat="27.2117522" lon="103.0823543"><ele>3723.41</ele><time>2025-11-26T21:23:13.000Z</time></trkpt>
        <trkpt lat="27.2117222" lon="103.0822548"><ele>3722.48</ele><time>2025-11-26T21:23:25.000Z</time></trkpt>
        <trkpt lat="27.2116907" lon="103.0821591"><ele>3723.03</ele><time>2025-11-26T21:23:41.000Z</time></trkpt>
        <trkpt lat="27.2116714" lon="103.0820607"><ele>3724.13</ele><time>2025-11-26T21:24:09.000Z</time></trkpt>
        <trkpt lat="27.2116261" lon="103.0819742"><ele>3726.08</ele><time>2025-11-26T21:24:35.000Z</time></trkpt>
        <trkpt lat="27.2115792" lon="103.0818796"><ele>3728.75</ele><time>2025-11-26T21:24:51.000Z</time></trkpt>
        <trkpt lat="27.2115411" lon="103.0817779"><ele>3730.8</ele><time>2025-11-26T21:25:11.000Z</time></trkpt>
        <trkpt lat="27.211508" lon="103.0816768"><ele>3733</ele><time>2025-11-26T21:25:43.000Z</time></trkpt>
        <trkpt lat="27.2115027" lon="103.0815721"><ele>3732.59</ele><time>2025-11-26T21:26:13.000Z</time></trkpt>
        <trkpt lat="27.2114582" lon="103.0814799"><ele>3734.38</ele><time>2025-11-26T21:26:31.000Z</time></trkpt>
        <trkpt lat="27.2113845" lon="103.0814146"><ele>3736.91</ele><time>2025-11-26T21:26:45.000Z</time></trkpt>
        <trkpt lat="27.2113196" lon="103.0813323"><ele>3738.49</ele><time>2025-11-26T21:26:57.000Z</time></trkpt>
        <trkpt lat="27.2112594" lon="103.08124"><ele>3738.36</ele><time>2025-11-26T21:27:11.000Z</time></trkpt>
        <trkpt lat="27.2112226" lon="103.0811391"><ele>3737.69</ele><time>2025-11-26T21:28:05.000Z</time></trkpt>
        <trkpt lat="27.2111895" lon="103.08103"><ele>3738.41</ele><time>2025-11-26T21:28:19.000Z</time></trkpt>
        <trkpt lat="27.2111495" lon="103.0809288"><ele>3738.07</ele><time>2025-11-26T21:28:31.000Z</time></trkpt>
        <trkpt lat="27.2111512" lon="103.0808205"><ele>3736.56</ele><time>2025-11-26T21:29:43.000Z</time></trkpt>
        <trkpt lat="27.2110917" lon="103.080739"><ele>3736.13</ele><time>2025-11-26T21:29:57.000Z</time></trkpt>
        <trkpt lat="27.2110502" lon="103.0806457"><ele>3736.72</ele><time>2025-11-26T21:30:11.000Z</time></trkpt>
        <trkpt lat="27.2110332" lon="103.0805434"><ele>3738.13</ele><time>2025-11-26T21:30:41.000Z</time></trkpt>
        <trkpt lat="27.2110357" lon="103.0804359"><ele>3739.64</ele><time>2025-11-26T21:31:23.000Z</time></trkpt>
        <trkpt lat="27.2110581" lon="103.0803226"><ele>3742.14</ele><time>2025-11-26T21:32:39.000Z</time></trkpt>
        <trkpt lat="27.2110637" lon="103.080212"><ele>3747.55</ele><time>2025-11-26T21:34:11.000Z</time></trkpt>
        <trkpt lat="27.2111018" lon="103.0801095"><ele>3752.38</ele><time>2025-11-26T21:53:45.000Z</time></trkpt>
        <trkpt lat="27.2111167" lon="103.0800093"><ele>3755.03</ele><time>2025-11-26T21:54:03.000Z</time></trkpt>
        <trkpt lat="27.211139" lon="103.0799025"><ele>3756.11</ele><time>2025-11-26T21:54:21.000Z</time></trkpt>
        <trkpt lat="27.2111268" lon="103.079798"><ele>3757</ele><time>2025-11-26T21:54:53.000Z</time></trkpt>
        <trkpt lat="27.2111497" lon="103.0797029"><ele>3759.43</ele><time>2025-11-26T21:55:25.000Z</time></trkpt>
        <trkpt lat="27.2111629" lon="103.0796033"><ele>3761.91</ele><time>2025-11-26T21:55:57.000Z</time></trkpt>
        <trkpt lat="27.2111822" lon="103.0795034"><ele>3764.2</ele><time>2025-11-26T21:56:41.000Z</time></trkpt>
        <trkpt lat="27.2111898" lon="103.0794009"><ele>3764.76</ele><time>2025-11-26T21:56:55.000Z</time></trkpt>
        <trkpt lat="27.2111995" lon="103.0792936"><ele>3766.82</ele><time>2025-11-26T21:57:07.000Z</time></trkpt>
        <trkpt lat="27.2111965" lon="103.0791788"><ele>3769.49</ele><time>2025-11-26T21:57:29.000Z</time></trkpt>
        <trkpt lat="27.2111989" lon="103.0791049"><ele>3772.33</ele><time>2025-11-26T21:57:39.000Z</time></trkpt>
        <trkpt lat="27.2111848" lon="103.0790104"><ele>3774.51</ele><time>2025-11-26T21:57:55.000Z</time></trkpt>
        <trkpt lat="27.2111565" lon="103.0789418"><ele>3775.73</ele><time>2025-11-26T21:58:03.000Z</time></trkpt>
        <trkpt lat="27.2111657" lon="103.0788465"><ele>3776.21</ele><time>2025-11-26T21:59:21.000Z</time></trkpt>
        <trkpt lat="27.2111984" lon="103.078751"><ele>3781.04</ele><time>2025-11-26T21:59:47.000Z</time></trkpt>
        <trkpt lat="27.2112426" lon="103.078661"><ele>3784.01</ele><time>2025-11-26T22:00:31.000Z</time></trkpt>
        <trkpt lat="27.2112732" lon="103.0785618"><ele>3786.11</ele><time>2025-11-26T22:00:57.000Z</time></trkpt>
        <trkpt lat="27.211273" lon="103.0784595"><ele>3788.95</ele><time>2025-11-26T22:01:23.000Z</time></trkpt>
        <trkpt lat="27.2112447" lon="103.0783519"><ele>3791.59</ele><time>2025-11-26T22:01:47.000Z</time></trkpt>
        <trkpt lat="27.2112264" lon="103.078248"><ele>3795.49</ele><time>2025-11-26T22:02:13.000Z</time></trkpt>
        <trkpt lat="27.2111994" lon="103.0781447"><ele>3798.91</ele><time>2025-11-26T22:02:51.000Z</time></trkpt>
        <trkpt lat="27.2111747" lon="103.0780432"><ele>3801.81</ele><time>2025-11-26T22:03:33.000Z</time></trkpt>
        <trkpt lat="27.2111729" lon="103.0779389"><ele>3804.3</ele><time>2025-11-26T22:03:53.000Z</time></trkpt>
        <trkpt lat="27.2111654" lon="103.0778291"><ele>3807.69</ele><time>2025-11-26T22:04:15.000Z</time></trkpt>
        <trkpt lat="27.211147" lon="103.0777187"><ele>3809.86</ele><time>2025-11-26T22:04:27.000Z</time></trkpt>
        <trkpt lat="27.2111442" lon="103.0776135"><ele>3810.68</ele><time>2025-11-26T22:04:49.000Z</time></trkpt>
        <trkpt lat="27.2111285" lon="103.0775138"><ele>3812.09</ele><time>2025-11-26T22:05:19.000Z</time></trkpt>
        <trkpt lat="27.2111319" lon="103.0774126"><ele>3814.01</ele><time>2025-11-26T22:05:41.000Z</time></trkpt>
        <trkpt lat="27.2111234" lon="103.0773093"><ele>3816.53</ele><time>2025-11-26T22:06:31.000Z</time></trkpt>
        <trkpt lat="27.211141" lon="103.0772081"><ele>3819.93</ele><time>2025-11-26T22:07:13.000Z</time></trkpt>
        <trkpt lat="27.211168" lon="103.0771079"><ele>3822.51</ele><time>2025-11-26T22:07:55.000Z</time></trkpt>
        <trkpt lat="27.2111812" lon="103.0770059"><ele>3826.9</ele><time>2025-11-26T22:08:21.000Z</time></trkpt>
        <trkpt lat="27.2111741" lon="103.0769006"><ele>3830.6</ele><time>2025-11-26T22:09:27.000Z</time></trkpt>
        <trkpt lat="27.2111699" lon="103.0767971"><ele>3835.03</ele><time>2025-11-26T22:10:07.000Z</time></trkpt>
        <trkpt lat="27.211165" lon="103.0766912"><ele>3839.79</ele><time>2025-11-26T22:10:33.000Z</time></trkpt>
        <trkpt lat="27.2111697" lon="103.0765836"><ele>3844.42</ele><time>2025-11-26T22:11:23.000Z</time></trkpt>
        <trkpt lat="27.2111958" lon="103.0764814"><ele>3848.39</ele><time>2025-11-26T22:11:43.000Z</time></trkpt>
        <trkpt lat="27.2112175" lon="103.0763799"><ele>3852.11</ele><time>2025-11-26T22:12:19.000Z</time></trkpt>
        <trkpt lat="27.211279" lon="103.0762973"><ele>3856.18</ele><time>2025-11-26T22:14:21.000Z</time></trkpt>
        <trkpt lat="27.2112623" lon="103.0761935"><ele>3860.74</ele><time>2025-11-26T22:14:41.000Z</time></trkpt>
        <trkpt lat="27.2112791" lon="103.0760848"><ele>3864</ele><time>2025-11-26T22:15:01.000Z</time></trkpt>
        <trkpt lat="27.211302" lon="103.0759748"><ele>3866.89</ele><time>2025-11-26T22:15:23.000Z</time></trkpt>
        <trkpt lat="27.2113621" lon="103.0758935"><ele>3869.73</ele><time>2025-11-26T22:15:45.000Z</time></trkpt>
        <trkpt lat="27.211431" lon="103.0758207"><ele>3872.94</ele><time>2025-11-26T22:16:27.000Z</time></trkpt>
        <trkpt lat="27.2114737" lon="103.0757296"><ele>3876.28</ele><time>2025-11-26T22:16:47.000Z</time></trkpt>
        <trkpt lat="27.2115405" lon="103.0756483"><ele>3878.95</ele><time>2025-11-26T22:28:33.000Z</time></trkpt>
        <trkpt lat="27.2115814" lon="103.0755577"><ele>3882.34</ele><time>2025-11-26T22:28:43.000Z</time></trkpt>
        <trkpt lat="27.2116347" lon="103.0754685"><ele>3885.2</ele><time>2025-11-26T22:28:57.000Z</time></trkpt>
        <trkpt lat="27.2117148" lon="103.0754183"><ele>3888.11</ele><time>2025-11-26T22:29:33.000Z</time></trkpt>
        <trkpt lat="27.2118061" lon="103.0753805"><ele>3891.72</ele><time>2025-11-26T22:30:03.000Z</time></trkpt>
        <trkpt lat="27.2118524" lon="103.0753025"><ele>3895.65</ele><time>2025-11-26T22:30:17.000Z</time></trkpt>
        <trkpt lat="27.2119371" lon="103.0753079"><ele>3899.21</ele><time>2025-11-26T22:31:37.000Z</time></trkpt>
        <trkpt lat="27.2120343" lon="103.0753316"><ele>3903.55</ele><time>2025-11-26T22:32:01.000Z</time></trkpt>
        <trkpt lat="27.2121259" lon="103.0753668"><ele>3905.01</ele><time>2025-11-26T22:33:35.000Z</time></trkpt>
        <trkpt lat="27.2121957" lon="103.0754327"><ele>3907.61</ele><time>2025-11-26T22:34:05.000Z</time></trkpt>
        <trkpt lat="27.2122929" lon="103.0754369"><ele>3909.03</ele><time>2025-11-26T22:34:39.000Z</time></trkpt>
        <trkpt lat="27.2123748" lon="103.0754884"><ele>3910.84</ele><time>2025-11-26T22:35:57.000Z</time></trkpt>
        <trkpt lat="27.212405" lon="103.0755875"><ele>3915.41</ele><time>2025-11-26T22:36:17.000Z</time></trkpt>
        <trkpt lat="27.2124096" lon="103.0756882"><ele>3919.11</ele><time>2025-11-26T22:36:53.000Z</time></trkpt>
        <trkpt lat="27.212446" lon="103.0757886"><ele>3924.37</ele><time>2025-11-26T22:40:26.000Z</time></trkpt>
        <trkpt lat="27.212537" lon="103.0758007"><ele>3928.67</ele><time>2025-11-26T22:41:00.000Z</time></trkpt>
        <trkpt lat="27.212573" lon="103.0758844"><ele>3931.27</ele><time>2025-11-26T22:41:34.000Z</time></trkpt>
        <trkpt lat="27.212572" lon="103.0759871"><ele>3934.96</ele><time>2025-11-26T22:42:10.000Z</time></trkpt>
        <trkpt lat="27.2126319" lon="103.076037"><ele>3939.68</ele><time>2025-11-26T22:43:08.000Z</time></trkpt>
        <trkpt lat="27.2127411" lon="103.0760041"><ele>3941.66</ele><time>2025-11-26T22:45:36.000Z</time></trkpt>
        <trkpt lat="27.2128317" lon="103.0760196"><ele>3945.41</ele><time>2025-11-26T22:46:44.000Z</time></trkpt>
        <trkpt lat="27.2129043" lon="103.0759583"><ele>3948.35</ele><time>2025-11-26T22:48:52.000Z</time></trkpt>
        <trkpt lat="27.2129944" lon="103.0759653"><ele>3953.85</ele><time>2025-11-26T22:49:44.000Z</time></trkpt>
        <trkpt lat="27.2130941" lon="103.0759714"><ele>3957.61</ele><time>2025-11-26T22:50:28.000Z</time></trkpt>
        <trkpt lat="27.2131569" lon="103.0760458"><ele>3960.55</ele><time>2025-11-26T22:51:31.000Z</time></trkpt>
        <trkpt lat="27.2132083" lon="103.07614"><ele>3962.76</ele><time>2025-11-26T22:51:51.000Z</time></trkpt>
        <trkpt lat="27.2132929" lon="103.0761457"><ele>3964.45</ele><time>2025-11-26T22:52:15.000Z</time></trkpt>
        <trkpt lat="27.2133293" lon="103.0762197"><ele>3966.65</ele><time>2025-11-26T22:52:57.000Z</time></trkpt>
        <trkpt lat="27.2133871" lon="103.0763022"><ele>3968.2</ele><time>2025-11-26T22:53:35.000Z</time></trkpt>
        <trkpt lat="27.2134449" lon="103.0764014"><ele>3969.82</ele><time>2025-11-26T22:57:06.000Z</time></trkpt>
        <trkpt lat="27.2134826" lon="103.0765078"><ele>3973.15</ele><time>2025-11-26T22:57:38.000Z</time></trkpt>
        <trkpt lat="27.21345" lon="103.0766066"><ele>3974.22</ele><time>2025-11-26T22:57:52.000Z</time></trkpt>
        <trkpt lat="27.213411" lon="103.0767051"><ele>3974.95</ele><time>2025-11-26T22:58:16.000Z</time></trkpt>
        <trkpt lat="27.2133592" lon="103.0767976"><ele>3977.98</ele><time>2025-11-26T22:58:32.000Z</time></trkpt>
        <trkpt lat="27.21334" lon="103.0769033"><ele>3980.64</ele><time>2025-11-26T22:59:18.000Z</time></trkpt>
        <trkpt lat="27.2133238" lon="103.0770098"><ele>3981.64</ele><time>2025-11-26T22:59:38.000Z</time></trkpt>
        <trkpt lat="27.2133608" lon="103.0771089"><ele>3982.71</ele><time>2025-11-26T23:02:50.000Z</time></trkpt>
        <trkpt lat="27.2133694" lon="103.0772099"><ele>3986.09</ele><time>2025-11-26T23:03:42.000Z</time></trkpt>
        <trkpt lat="27.2134369" lon="103.0772773"><ele>3989.26</ele><time>2025-11-26T23:04:12.000Z</time></trkpt>
        <trkpt lat="27.2135231" lon="103.0773259"><ele>3991.8</ele><time>2025-11-26T23:05:32.000Z</time></trkpt>
        <trkpt lat="27.2135584" lon="103.0774221"><ele>3993.93</ele><time>2025-11-26T23:05:48.000Z</time></trkpt>
        <trkpt lat="27.2135833" lon="103.0775273"><ele>3996.04</ele><time>2025-11-26T23:06:40.000Z</time></trkpt>
        <trkpt lat="27.2135731" lon="103.0776394"><ele>3999.91</ele><time>2025-11-26T23:06:56.000Z</time></trkpt>
        <trkpt lat="27.2135229" lon="103.0777393"><ele>4002.43</ele><time>2025-11-26T23:07:10.000Z</time></trkpt>
        <trkpt lat="27.2134556" lon="103.0778274"><ele>4004.1</ele><time>2025-11-26T23:07:28.000Z</time></trkpt>
        <trkpt lat="27.2133842" lon="103.0779081"><ele>4005.81</ele><time>2025-11-26T23:07:50.000Z</time></trkpt>
        <trkpt lat="27.2133239" lon="103.077996"><ele>4007.58</ele><time>2025-11-26T23:08:06.000Z</time></trkpt>
        <trkpt lat="27.2132757" lon="103.0780865"><ele>4009.31</ele><time>2025-11-26T23:08:34.000Z</time></trkpt>
        <trkpt lat="27.2132095" lon="103.0781611"><ele>4010.67</ele><time>2025-11-26T23:08:48.000Z</time></trkpt>
        <trkpt lat="27.2131375" lon="103.0782244"><ele>4012.15</ele><time>2025-11-26T23:15:01.000Z</time></trkpt>
        <trkpt lat="27.2131375" lon="103.0782244"><ele>4012.15</ele><time>2025-11-26T23:15:19.000Z</time></trkpt>
      </trkseg>
      <trkseg>
        <trkpt lat="27.2134159" lon="103.0774571"><ele>4013.22</ele><time>2025-11-26T23:38:31.000Z</time></trkpt>
        <trkpt lat="27.2134159" lon="103.0774571"><ele>4013.22</ele><time>2025-11-26T23:38:55.000Z</time></trkpt>
        <trkpt lat="27.2134549" lon="103.077366"><ele>4011.33</ele><time>2025-11-26T23:39:13.000Z</time></trkpt>
        <trkpt lat="27.2134698" lon="103.0772647"><ele>4009.46</ele><time>2025-11-26T23:39:47.000Z</time></trkpt>
        <trkpt lat="27.2134179" lon="103.0771829"><ele>4006.27</ele><time>2025-11-26T23:40:03.000Z</time></trkpt>
        <trkpt lat="27.213384" lon="103.077082"><ele>4003.16</ele><time>2025-11-26T23:40:23.000Z</time></trkpt>
        <trkpt lat="27.2133572" lon="103.0769729"><ele>4000.25</ele><time>2025-11-26T23:40:39.000Z</time></trkpt>
        <trkpt lat="27.2133629" lon="103.0768633"><ele>3997.6</ele><time>2025-11-26T23:40:49.000Z</time></trkpt>
        <trkpt lat="27.2133734" lon="103.0767568"><ele>3995.46</ele><time>2025-11-26T23:40:59.000Z</time></trkpt>
        <trkpt lat="27.2133999" lon="103.0766552"><ele>3993.3</ele><time>2025-11-26T23:41:09.000Z</time></trkpt>
        <trkpt lat="27.2134378" lon="103.0765582"><ele>3990.93</ele><time>2025-11-26T23:41:19.000Z</time></trkpt>
        <trkpt lat="27.2134521" lon="103.0764543"><ele>3988.39</ele><time>2025-11-26T23:41:31.000Z</time></trkpt>
        <trkpt lat="27.2134236" lon="103.0763584"><ele>3985.5</ele><time>2025-11-26T23:41:43.000Z</time></trkpt>
        <trkpt lat="27.2133644" lon="103.0762771"><ele>3982.72</ele><time>2025-11-26T23:41:55.000Z</time></trkpt>
        <trkpt lat="27.2132907" lon="103.0761968"><ele>3981.24</ele><time>2025-11-26T23:42:13.000Z</time></trkpt>
        <trkpt lat="27.2132149" lon="103.0761202"><ele>3979.33</ele><time>2025-11-26T23:42:27.000Z</time></trkpt>
        <trkpt lat="27.213151" lon="103.0760416"><ele>3977.16</ele><time>2025-11-26T23:42:39.000Z</time></trkpt>
        <trkpt lat="27.2130854" lon="103.0759599"><ele>3975.34</ele><time>2025-11-26T23:43:19.000Z</time></trkpt>
        <trkpt lat="27.2129925" lon="103.0759407"><ele>3973.8</ele><time>2025-11-26T23:43:31.000Z</time></trkpt>
        <trkpt lat="27.2128963" lon="103.0759359"><ele>3972.42</ele><time>2025-11-26T23:44:03.000Z</time></trkpt>
        <trkpt lat="27.2128274" lon="103.0760106"><ele>3969.85</ele><time>2025-11-26T23:44:25.000Z</time></trkpt>
        <trkpt lat="27.212772" lon="103.0759766"><ele>3968.05</ele><time>2025-11-26T23:44:57.000Z</time></trkpt>
        <trkpt lat="27.2127134" lon="103.0759078"><ele>3964.86</ele><time>2025-11-26T23:45:11.000Z</time></trkpt>
        <trkpt lat="27.212639" lon="103.0759425"><ele>3961.83</ele><time>2025-11-26T23:46:11.000Z</time></trkpt>
        <trkpt lat="27.2125957" lon="103.076043"><ele>3958.15</ele><time>2025-11-26T23:49:13.000Z</time></trkpt>
        <trkpt lat="27.2124995" lon="103.0760595"><ele>3955.34</ele><time>2025-11-26T23:50:03.000Z</time></trkpt>
        <trkpt lat="27.2124424" lon="103.0759745"><ele>3952.74</ele><time>2025-11-26T23:50:17.000Z</time></trkpt>
        <trkpt lat="27.2123532" lon="103.0759381"><ele>3949.9</ele><time>2025-11-26T23:51:11.000Z</time></trkpt>
        <trkpt lat="27.2123364" lon="103.0758435"><ele>3946.25</ele><time>2025-11-26T23:51:33.000Z</time></trkpt>
        <trkpt lat="27.2123063" lon="103.0757466"><ele>3942.46</ele><time>2025-11-26T23:51:45.000Z</time></trkpt>
        <trkpt lat="27.2122787" lon="103.075635"><ele>3939.07</ele><time>2025-11-26T23:53:53.000Z</time></trkpt>
        <trkpt lat="27.2122341" lon="103.0755332"><ele>3933.44</ele><time>2025-11-26T23:54:11.000Z</time></trkpt>
        <trkpt lat="27.2121713" lon="103.0754508"><ele>3928.82</ele><time>2025-11-26T23:54:25.000Z</time></trkpt>
        <trkpt lat="27.2120938" lon="103.0753883"><ele>3924.93</ele><time>2025-11-26T23:54:37.000Z</time></trkpt>
        <trkpt lat="27.2120083" lon="103.0753393"><ele>3921.78</ele><time>2025-11-26T23:54:48.000Z</time></trkpt>
        <trkpt lat="27.211915" lon="103.0753168"><ele>3918.86</ele><time>2025-11-26T23:54:58.000Z</time></trkpt>
        <trkpt lat="27.2118228" lon="103.0752852"><ele>3916.55</ele><time>2025-11-26T23:55:10.000Z</time></trkpt>
        <trkpt lat="27.2117383" lon="103.0753365"><ele>3914.46</ele><time>2025-11-26T23:56:12.000Z</time></trkpt>
        <trkpt lat="27.2116664" lon="103.0753999"><ele>3911.4</ele><time>2025-11-26T23:56:38.000Z</time></trkpt>
        <trkpt lat="27.2115961" lon="103.0754708"><ele>3908.19</ele><time>2025-11-26T23:56:56.000Z</time></trkpt>
        <trkpt lat="27.211538" lon="103.075563"><ele>3904.93</ele><time>2025-11-26T23:57:06.000Z</time></trkpt>
        <trkpt lat="27.2115138" lon="103.0756636"><ele>3902.08</ele><time>2025-11-26T23:57:18.000Z</time></trkpt>
        <trkpt lat="27.2114688" lon="103.075749"><ele>3898.87</ele><time>2025-11-26T23:57:34.000Z</time></trkpt>
        <trkpt lat="27.2114362" lon="103.0757849"><ele>3896.28</ele><time>2025-11-26T23:57:46.000Z</time></trkpt>
        <trkpt lat="27.2114159" lon="103.075868"><ele>3893.98</ele><time>2025-11-26T23:58:14.000Z</time></trkpt>
        <trkpt lat="27.2113888" lon="103.0759691"><ele>3890.74</ele><time>2025-11-26T23:58:32.000Z</time></trkpt>
        <trkpt lat="27.2113366" lon="103.0760601"><ele>3887.16</ele><time>2025-11-26T23:58:48.000Z</time></trkpt>
        <trkpt lat="27.211301" lon="103.0761621"><ele>3883.93</ele><time>2025-11-26T23:59:02.000Z</time></trkpt>
        <trkpt lat="27.2112677" lon="103.0762671"><ele>3880.39</ele><time>2025-11-26T23:59:48.000Z</time></trkpt>
        <trkpt lat="27.2112273" lon="103.0763643"><ele>3876.85</ele><time>2025-11-27T00:00:22.000Z</time></trkpt>
        <trkpt lat="27.2112174" lon="103.0764693"><ele>3873.67</ele><time>2025-11-27T00:00:46.000Z</time></trkpt>
        <trkpt lat="27.211227" lon="103.0765719"><ele>3869.18</ele><time>2025-11-27T00:00:52.000Z</time></trkpt>
        <trkpt lat="27.2112118" lon="103.076673"><ele>3865.08</ele><time>2025-11-27T00:02:04.000Z</time></trkpt>
        <trkpt lat="27.2112211" lon="103.0767879"><ele>3862.28</ele><time>2025-11-27T00:02:10.000Z</time></trkpt>
        <trkpt lat="27.211226" lon="103.0768163"><ele>3858.75</ele><time>2025-11-27T00:02:14.000Z</time></trkpt>
        <trkpt lat="27.211224" lon="103.0769043"><ele>3856.33</ele><time>2025-11-27T00:06:50.000Z</time></trkpt>
        <trkpt lat="27.2111937" lon="103.0770016"><ele>3853.83</ele><time>2025-11-27T00:08:14.000Z</time></trkpt>
        <trkpt lat="27.2112153" lon="103.0771034"><ele>3851.38</ele><time>2025-11-27T00:17:06.000Z</time></trkpt>
        <trkpt lat="27.2111988" lon="103.0772093"><ele>3844.82</ele><time>2025-11-27T00:17:34.000Z</time></trkpt>
        <trkpt lat="27.2111814" lon="103.0773099"><ele>3840.29</ele><time>2025-11-27T00:17:52.000Z</time></trkpt>
        <trkpt lat="27.2111865" lon="103.0774231"><ele>3836.97</ele><time>2025-11-27T00:18:08.000Z</time></trkpt>
        <trkpt lat="27.2111522" lon="103.0775271"><ele>3834.29</ele><time>2025-11-27T00:18:38.000Z</time></trkpt>
        <trkpt lat="27.2111267" lon="103.0775763"><ele>3831.9</ele><time>2025-11-27T00:18:46.000Z</time></trkpt>
        <trkpt lat="27.2111058" lon="103.0776629"><ele>3830.18</ele><time>2025-11-27T00:19:06.000Z</time></trkpt>
        <trkpt lat="27.2110542" lon="103.077752"><ele>3828.14</ele><time>2025-11-27T00:20:20.000Z</time></trkpt>
        <trkpt lat="27.2110381" lon="103.0778581"><ele>3824.64</ele><time>2025-11-27T00:22:20.000Z</time></trkpt>
        <trkpt lat="27.2110656" lon="103.0779593"><ele>3820.32</ele><time>2025-11-27T00:23:27.000Z</time></trkpt>
        <trkpt lat="27.2110811" lon="103.0780649"><ele>3815.58</ele><time>2025-11-27T00:25:03.000Z</time></trkpt>
        <trkpt lat="27.2111478" lon="103.0781409"><ele>3811.71</ele><time>2025-11-27T00:25:23.000Z</time></trkpt>
        <trkpt lat="27.2112102" lon="103.0782203"><ele>3811</ele><time>2025-11-27T00:26:19.000Z</time></trkpt>
        <trkpt lat="27.211246" lon="103.0783234"><ele>3809.82</ele><time>2025-11-27T00:27:19.000Z</time></trkpt>
        <trkpt lat="27.2112453" lon="103.0784363"><ele>3807.71</ele><time>2025-11-27T00:27:41.000Z</time></trkpt>
        <trkpt lat="27.2112754" lon="103.0785347"><ele>3805.6</ele><time>2025-11-27T00:27:55.000Z</time></trkpt>
        <trkpt lat="27.211254" lon="103.078635"><ele>3803.61</ele><time>2025-11-27T00:28:35.000Z</time></trkpt>
        <trkpt lat="27.2112238" lon="103.0787386"><ele>3801.11</ele><time>2025-11-27T00:28:57.000Z</time></trkpt>
        <trkpt lat="27.2111739" lon="103.0788375"><ele>3797.18</ele><time>2025-11-27T00:29:15.000Z</time></trkpt>
        <trkpt lat="27.2111497" lon="103.078947"><ele>3794.16</ele><time>2025-11-27T00:29:27.000Z</time></trkpt>
        <trkpt lat="27.2111728" lon="103.0790479"><ele>3792.37</ele><time>2025-11-27T00:29:39.000Z</time></trkpt>
        <trkpt lat="27.2112078" lon="103.0791453"><ele>3789.95</ele><time>2025-11-27T00:29:51.000Z</time></trkpt>
        <trkpt lat="27.2112247" lon="103.079249"><ele>3788.37</ele><time>2025-11-27T00:30:05.000Z</time></trkpt>
        <trkpt lat="27.2112239" lon="103.0793621"><ele>3786.33</ele><time>2025-11-27T00:30:19.000Z</time></trkpt>
        <trkpt lat="27.2112168" lon="103.0794747"><ele>3785.03</ele><time>2025-11-27T00:30:29.000Z</time></trkpt>
        <trkpt lat="27.2111982" lon="103.0795792"><ele>3783.92</ele><time>2025-11-27T00:30:39.000Z</time></trkpt>
        <trkpt lat="27.2111944" lon="103.0796885"><ele>3783.05</ele><time>2025-11-27T00:31:05.000Z</time></trkpt>
        <trkpt lat="27.2111703" lon="103.0797881"><ele>3780.61</ele><time>2025-11-27T00:31:57.000Z</time></trkpt>
        <trkpt lat="27.2111374" lon="103.0798824"><ele>3777.72</ele><time>2025-11-27T00:32:59.000Z</time></trkpt>
        <trkpt lat="27.2111155" lon="103.0799912"><ele>3772.64</ele><time>2025-11-27T00:33:23.000Z</time></trkpt>
        <trkpt lat="27.2110935" lon="103.0800911"><ele>3769.4</ele><time>2025-11-27T00:33:45.000Z</time></trkpt>
        <trkpt lat="27.2110724" lon="103.0801947"><ele>3766.86</ele><time>2025-11-27T00:34:07.000Z</time></trkpt>
        <trkpt lat="27.2110803" lon="103.0802994"><ele>3763.8</ele><time>2025-11-27T00:34:35.000Z</time></trkpt>
        <trkpt lat="27.2110706" lon="103.0803999"><ele>3759.47</ele><time>2025-11-27T00:35:49.000Z</time></trkpt>
        <trkpt lat="27.2110748" lon="103.0805059"><ele>3755.78</ele><time>2025-11-27T00:37:03.000Z</time></trkpt>
        <trkpt lat="27.2110814" lon="103.0806072"><ele>3749.25</ele><time>2025-11-27T00:37:25.000Z</time></trkpt>
        <trkpt lat="27.21108" lon="103.0807092"><ele>3742.22</ele><time>2025-11-27T00:37:41.000Z</time></trkpt>
        <trkpt lat="27.2111158" lon="103.080804"><ele>3736.62</ele><time>2025-11-27T00:38:17.000Z</time></trkpt>
        <trkpt lat="27.2111492" lon="103.0809004"><ele>3732.27</ele><time>2025-11-27T00:38:29.000Z</time></trkpt>
        <trkpt lat="27.211174" lon="103.081006"><ele>3730.66</ele><time>2025-11-27T00:39:19.000Z</time></trkpt>
        <trkpt lat="27.2112263" lon="103.0810898"><ele>3730.3</ele><time>2025-11-27T00:39:41.000Z</time></trkpt>
        <trkpt lat="27.2112528" lon="103.0811864"><ele>3730.54</ele><time>2025-11-27T00:40:11.000Z</time></trkpt>
        <trkpt lat="27.2112693" lon="103.0812863"><ele>3731.35</ele><time>2025-11-27T00:40:23.000Z</time></trkpt>
        <trkpt lat="27.2113322" lon="103.0813672"><ele>3731.35</ele><time>2025-11-27T00:42:05.000Z</time></trkpt>
        <trkpt lat="27.2113794" lon="103.0814542"><ele>3731.32</ele><time>2025-11-27T00:42:13.000Z</time></trkpt>
        <trkpt lat="27.2114588" lon="103.0815059"><ele>3731.13</ele><time>2025-11-27T00:42:23.000Z</time></trkpt>
        <trkpt lat="27.2115337" lon="103.081567"><ele>3729.96</ele><time>2025-11-27T00:42:33.000Z</time></trkpt>
        <trkpt lat="27.2115613" lon="103.0816695"><ele>3728.45</ele><time>2025-11-27T00:42:41.000Z</time></trkpt>
        <trkpt lat="27.2115883" lon="103.0817728"><ele>3726.93</ele><time>2025-11-27T00:42:51.000Z</time></trkpt>
        <trkpt lat="27.2115999" lon="103.0818778"><ele>3725.81</ele><time>2025-11-27T00:43:07.000Z</time></trkpt>
        <trkpt lat="27.2116288" lon="103.0819803"><ele>3725.63</ele><time>2025-11-27T00:43:27.000Z</time></trkpt>
        <trkpt lat="27.211689" lon="103.0820686"><ele>3725.42</ele><time>2025-11-27T00:44:39.000Z</time></trkpt>
        <trkpt lat="27.2117081" lon="103.0821777"><ele>3725.37</ele><time>2025-11-27T00:45:17.000Z</time></trkpt>
        <trkpt lat="27.2117389" lon="103.0822783"><ele>3724.32</ele><time>2025-11-27T00:46:09.000Z</time></trkpt>
        <trkpt lat="27.211777" lon="103.0823807"><ele>3723.08</ele><time>2025-11-27T00:46:29.000Z</time></trkpt>
        <trkpt lat="27.2118048" lon="103.0824858"><ele>3722.48</ele><time>2025-11-27T00:46:47.000Z</time></trkpt>
        <trkpt lat="27.2118218" lon="103.0825874"><ele>3722.22</ele><time>2025-11-27T00:47:05.000Z</time></trkpt>
        <trkpt lat="27.2118334" lon="103.0826894"><ele>3722.19</ele><time>2025-11-27T00:47:25.000Z</time></trkpt>
        <trkpt lat="27.2118655" lon="103.0827854"><ele>3722.25</ele><time>2025-11-27T00:47:45.000Z</time></trkpt>
        <trkpt lat="27.2118928" lon="103.0828842"><ele>3721.78</ele><time>2025-11-27T00:48:05.000Z</time></trkpt>
        <trkpt lat="27.2118811" lon="103.0829877"><ele>3721.76</ele><time>2025-11-27T00:48:23.000Z</time></trkpt>
        <trkpt lat="27.2118696" lon="103.0830957"><ele>3721.91</ele><time>2025-11-27T00:49:07.000Z</time></trkpt>
        <trkpt lat="27.2118945" lon="103.083197"><ele>3722.55</ele><time>2025-11-27T00:49:23.000Z</time></trkpt>
        <trkpt lat="27.2119426" lon="103.083289"><ele>3722.27</ele><time>2025-11-27T00:49:45.000Z</time></trkpt>
        <trkpt lat="27.2120006" lon="103.0833903"><ele>3721.07</ele><time>2025-11-27T00:50:01.000Z</time></trkpt>
        <trkpt lat="27.2120555" lon="103.0834747"><ele>3719.35</ele><time>2025-11-27T00:50:17.000Z</time></trkpt>
        <trkpt lat="27.2121269" lon="103.0835444"><ele>3716.75</ele><time>2025-11-27T00:50:41.000Z</time></trkpt>
        <trkpt lat="27.2122022" lon="103.0836192"><ele>3714.32</ele><time>2025-11-27T00:51:03.000Z</time></trkpt>
        <trkpt lat="27.2122729" lon="103.0836896"><ele>3712.13</ele><time>2025-11-27T00:51:19.000Z</time></trkpt>
        <trkpt lat="27.212355" lon="103.0837558"><ele>3710.36</ele><time>2025-11-27T00:51:31.000Z</time></trkpt>
        <trkpt lat="27.212441" lon="103.0838217"><ele>3708.87</ele><time>2025-11-27T00:51:47.000Z</time></trkpt>
        <trkpt lat="27.21251" lon="103.0838998"><ele>3708.17</ele><time>2025-11-27T00:52:01.000Z</time></trkpt>
        <trkpt lat="27.212583" lon="103.0839688"><ele>3707.67</ele><time>2025-11-27T00:52:31.000Z</time></trkpt>
        <trkpt lat="27.2126234" lon="103.0840691"><ele>3706.76</ele><time>2025-11-27T00:52:49.000Z</time></trkpt>
        <trkpt lat="27.2126556" lon="103.0841722"><ele>3706.22</ele><time>2025-11-27T00:53:03.000Z</time></trkpt>
        <trkpt lat="27.2126856" lon="103.0842806"><ele>3705.77</ele><time>2025-11-27T00:53:15.000Z</time></trkpt>
        <trkpt lat="27.2127338" lon="103.0843857"><ele>3705.28</ele><time>2025-11-27T00:53:27.000Z</time></trkpt>
        <trkpt lat="27.2127912" lon="103.0844768"><ele>3704.61</ele><time>2025-11-27T00:53:39.000Z</time></trkpt>
        <trkpt lat="27.2128413" lon="103.0845732"><ele>3704.28</ele><time>2025-11-27T00:53:55.000Z</time></trkpt>
        <trkpt lat="27.2128838" lon="103.0846686"><ele>3704.23</ele><time>2025-11-27T00:56:17.000Z</time></trkpt>
        <trkpt lat="27.2129698" lon="103.0847069"><ele>3702.3</ele><time>2025-11-27T00:57:47.000Z</time></trkpt>
        <trkpt lat="27.2130426" lon="103.0847752"><ele>3700.38</ele><time>2025-11-27T00:58:19.000Z</time></trkpt>
        <trkpt lat="27.2131288" lon="103.0848214"><ele>3697.2</ele><time>2025-11-27T00:58:41.000Z</time></trkpt>
        <trkpt lat="27.2131922" lon="103.0848932"><ele>3694.41</ele><time>2025-11-27T00:59:07.000Z</time></trkpt>
        <trkpt lat="27.2132377" lon="103.0849879"><ele>3690.74</ele><time>2025-11-27T00:59:25.000Z</time></trkpt>
        <trkpt lat="27.2132547" lon="103.0850453"><ele>3687.08</ele><time>2025-11-27T00:59:29.000Z</time></trkpt>
        <trkpt lat="27.2132593" lon="103.0851392"><ele>3684.28</ele><time>2025-11-27T00:59:43.000Z</time></trkpt>
        <trkpt lat="27.21326" lon="103.0852419"><ele>3682.79</ele><time>2025-11-27T01:00:05.000Z</time></trkpt>
        <trkpt lat="27.2132432" lon="103.0853527"><ele>3682.62</ele><time>2025-11-27T01:00:21.000Z</time></trkpt>
        <trkpt lat="27.2131874" lon="103.0854583"><ele>3681.22</ele><time>2025-11-27T01:03:33.000Z</time></trkpt>
        <trkpt lat="27.2131606" lon="103.0855605"><ele>3680.18</ele><time>2025-11-27T01:03:59.000Z</time></trkpt>
        <trkpt lat="27.2130915" lon="103.085625"><ele>3677.58</ele><time>2025-11-27T01:04:15.000Z</time></trkpt>
        <trkpt lat="27.2130083" lon="103.0855965"><ele>3674.13</ele><time>2025-11-27T01:04:33.000Z</time></trkpt>
        <trkpt lat="27.2129188" lon="103.0855466"><ele>3673</ele><time>2025-11-27T01:04:51.000Z</time></trkpt>
        <trkpt lat="27.2128576" lon="103.0855912"><ele>3672.16</ele><time>2025-11-27T01:05:05.000Z</time></trkpt>
        <trkpt lat="27.2128391" lon="103.0856883"><ele>3669.77</ele><time>2025-11-27T01:05:37.000Z</time></trkpt>
        <trkpt lat="27.2128068" lon="103.0857924"><ele>3663.37</ele><time>2025-11-27T01:05:51.000Z</time></trkpt>
        <trkpt lat="27.2127513" lon="103.0858896"><ele>3657.39</ele><time>2025-11-27T01:06:07.000Z</time></trkpt>
        <trkpt lat="27.2126847" lon="103.0859659"><ele>3652.47</ele><time>2025-11-27T01:06:35.000Z</time></trkpt>
        <trkpt lat="27.2126352" lon="103.086052"><ele>3647.47</ele><time>2025-11-27T01:06:47.000Z</time></trkpt>
        <trkpt lat="27.2125746" lon="103.0861272"><ele>3643.61</ele><time>2025-11-27T01:07:03.000Z</time></trkpt>
        <trkpt lat="27.2125561" lon="103.0862211"><ele>3640.25</ele><time>2025-11-27T01:07:31.000Z</time></trkpt>
        <trkpt lat="27.2125614" lon="103.086326"><ele>3634.76</ele><time>2025-11-27T01:07:53.000Z</time></trkpt>
        <trkpt lat="27.2125821" lon="103.0864348"><ele>3628.19</ele><time>2025-11-27T01:08:11.000Z</time></trkpt>
        <trkpt lat="27.2125617" lon="103.0865416"><ele>3621.23</ele><time>2025-11-27T01:08:25.000Z</time></trkpt>
        <trkpt lat="27.2125515" lon="103.0865956"><ele>3616.84</ele><time>2025-11-27T01:08:31.000Z</time></trkpt>
        <trkpt lat="27.2125228" lon="103.0866759"><ele>3614.35</ele><time>2025-11-27T01:09:45.000Z</time></trkpt>
        <trkpt lat="27.2124558" lon="103.0867511"><ele>3614.77</ele><time>2025-11-27T01:10:09.000Z</time></trkpt>
        <trkpt lat="27.2124348" lon="103.0868515"><ele>3614.58</ele><time>2025-11-27T01:10:29.000Z</time></trkpt>
        <trkpt lat="27.2124006" lon="103.0869599"><ele>3611.45</ele><time>2025-11-27T01:10:43.000Z</time></trkpt>
        <trkpt lat="27.2123703" lon="103.0870061"><ele>3610.77</ele><time>2025-11-27T01:10:49.000Z</time></trkpt>
        <trkpt lat="27.2123394" lon="103.0870935"><ele>3610.41</ele><time>2025-11-27T01:11:11.000Z</time></trkpt>
        <trkpt lat="27.2123089" lon="103.0871909"><ele>3609.19</ele><time>2025-11-27T01:11:23.000Z</time></trkpt>
        <trkpt lat="27.2123128" lon="103.0873166"><ele>3607.42</ele><time>2025-11-27T01:13:13.000Z</time></trkpt>
        <trkpt lat="27.2122978" lon="103.0874195"><ele>3606.7</ele><time>2025-11-27T01:13:25.000Z</time></trkpt>
        <trkpt lat="27.2122793" lon="103.0875199"><ele>3605.62</ele><time>2025-11-27T01:14:11.000Z</time></trkpt>
        <trkpt lat="27.2122094" lon="103.0875892"><ele>3605.22</ele><time>2025-11-27T01:14:25.000Z</time></trkpt>
        <trkpt lat="27.2121292" lon="103.0876513"><ele>3604.87</ele><time>2025-11-27T01:14:41.000Z</time></trkpt>
        <trkpt lat="27.2120772" lon="103.08774"><ele>3603.3</ele><time>2025-11-27T01:14:57.000Z</time></trkpt>
        <trkpt lat="27.2120307" lon="103.0878328"><ele>3601.03</ele><time>2025-11-27T01:15:15.000Z</time></trkpt>
        <trkpt lat="27.2119966" lon="103.0879345"><ele>3597.78</ele><time>2025-11-27T01:15:29.000Z</time></trkpt>
        <trkpt lat="27.2119536" lon="103.0880306"><ele>3594.71</ele><time>2025-11-27T01:15:43.000Z</time></trkpt>
        <trkpt lat="27.2119187" lon="103.0881316"><ele>3592.05</ele><time>2025-11-27T01:16:29.000Z</time></trkpt>
        <trkpt lat="27.2118865" lon="103.088235"><ele>3589.04</ele><time>2025-11-27T01:16:55.000Z</time></trkpt>
        <trkpt lat="27.2118446" lon="103.0883427"><ele>3585.32</ele><time>2025-11-27T01:17:07.000Z</time></trkpt>
        <trkpt lat="27.211795" lon="103.0884318"><ele>3584.51</ele><time>2025-11-27T01:17:29.000Z</time></trkpt>
        <trkpt lat="27.211772" lon="103.0885278"><ele>3582.06</ele><time>2025-11-27T01:18:41.000Z</time></trkpt>
        <trkpt lat="27.2117655" lon="103.0886307"><ele>3577.47</ele><time>2025-11-27T01:19:55.000Z</time></trkpt>
        <trkpt lat="27.2117237" lon="103.0887255"><ele>3574.84</ele><time>2025-11-27T01:20:13.000Z</time></trkpt>
        <trkpt lat="27.2116825" lon="103.0888269"><ele>3573.92</ele><time>2025-11-27T01:20:31.000Z</time></trkpt>
        <trkpt lat="27.2116523" lon="103.0889296"><ele>3571.81</ele><time>2025-11-27T01:20:51.000Z</time></trkpt>
        <trkpt lat="27.211643" lon="103.0890367"><ele>3567.64</ele><time>2025-11-27T01:21:11.000Z</time></trkpt>
        <trkpt lat="27.2116129" lon="103.0891378"><ele>3562.71</ele><time>2025-11-27T01:21:35.000Z</time></trkpt>
        <trkpt lat="27.2115778" lon="103.0892342"><ele>3560.03</ele><time>2025-11-27T01:22:03.000Z</time></trkpt>
        <trkpt lat="27.2115686" lon="103.0893373"><ele>3556.39</ele><time>2025-11-27T01:22:31.000Z</time></trkpt>
        <trkpt lat="27.2116197" lon="103.0894185"><ele>3550.62</ele><time>2025-11-27T01:23:26.000Z</time></trkpt>
        <trkpt lat="27.21161" lon="103.0895076"><ele>3545.77</ele><time>2025-11-27T01:23:48.000Z</time></trkpt>
        <trkpt lat="27.2115375" lon="103.0895183"><ele>3541.22</ele><time>2025-11-27T01:24:04.000Z</time></trkpt>
        <trkpt lat="27.2114387" lon="103.0895045"><ele>3537.79</ele><time>2025-11-27T01:24:38.000Z</time></trkpt>
        <trkpt lat="27.2114047" lon="103.0895898"><ele>3534.24</ele><time>2025-11-27T01:26:08.000Z</time></trkpt>
        <trkpt lat="27.2113071" lon="103.0895963"><ele>3527.74</ele><time>2025-11-27T01:26:52.000Z</time></trkpt>
        <trkpt lat="27.2112361" lon="103.0896654"><ele>3523.77</ele><time>2025-11-27T01:27:22.000Z</time></trkpt>
        <trkpt lat="27.2112711" lon="103.0897374"><ele>3518.5</ele><time>2025-11-27T01:27:40.000Z</time></trkpt>
        <trkpt lat="27.2113143" lon="103.089834"><ele>3512.48</ele><time>2025-11-27T01:27:58.000Z</time></trkpt>
        <trkpt lat="27.2113317" lon="103.0899472"><ele>3507.83</ele><time>2025-11-27T01:28:12.000Z</time></trkpt>
        <trkpt lat="27.2113014" lon="103.090049"><ele>3505.07</ele><time>2025-11-27T01:28:28.000Z</time></trkpt>
        <trkpt lat="27.2112899" lon="103.0900944"><ele>3503.15</ele><time>2025-11-27T01:28:32.000Z</time></trkpt>
        <trkpt lat="27.211291" lon="103.0901767"><ele>3501.5</ele><time>2025-11-27T01:28:48.000Z</time></trkpt>
        <trkpt lat="27.211253" lon="103.0902735"><ele>3499.35</ele><time>2025-11-27T01:28:58.000Z</time></trkpt>
        <trkpt lat="27.2112272" lon="103.0903768"><ele>3498.81</ele><time>2025-11-27T01:29:12.000Z</time></trkpt>
        <trkpt lat="27.2111982" lon="103.0904803"><ele>3496.52</ele><time>2025-11-27T01:29:30.000Z</time></trkpt>
        <trkpt lat="27.2111522" lon="103.0905955"><ele>3493.58</ele><time>2025-11-27T01:29:46.000Z</time></trkpt>
        <trkpt lat="27.2110818" lon="103.0906812"><ele>3490.66</ele><time>2025-11-27T01:30:00.000Z</time></trkpt>
        <trkpt lat="27.2110325" lon="103.0907705"><ele>3487.88</ele><time>2025-11-27T01:30:10.000Z</time></trkpt>
        <trkpt lat="27.2109723" lon="103.0908582"><ele>3485.76</ele><time>2025-11-27T01:30:22.000Z</time></trkpt>
        <trkpt lat="27.2109187" lon="103.0909566"><ele>3484.63</ele><time>2025-11-27T01:30:32.000Z</time></trkpt>
        <trkpt lat="27.2108664" lon="103.0910087"><ele>3484.07</ele><time>2025-11-27T01:30:46.000Z</time></trkpt>
        <trkpt lat="27.2107895" lon="103.0910588"><ele>3482.63</ele><time>2025-11-27T01:32:04.000Z</time></trkpt>
        <trkpt lat="27.2107287" lon="103.0911428"><ele>3477.69</ele><time>2025-11-27T01:32:22.000Z</time></trkpt>
        <trkpt lat="27.2106601" lon="103.0912155"><ele>3473.29</ele><time>2025-11-27T01:32:40.000Z</time></trkpt>
        <trkpt lat="27.2105802" lon="103.091271"><ele>3469.58</ele><time>2025-11-27T01:33:02.000Z</time></trkpt>
        <trkpt lat="27.2105196" lon="103.0913543"><ele>3467.85</ele><time>2025-11-27T01:33:18.000Z</time></trkpt>
        <trkpt lat="27.2104389" lon="103.0913505"><ele>3465.51</ele><time>2025-11-27T01:33:36.000Z</time></trkpt>
        <trkpt lat="27.2103495" lon="103.0913497"><ele>3462.78</ele><time>2025-11-27T01:33:56.000Z</time></trkpt>
        <trkpt lat="27.2102628" lon="103.0913824"><ele>3459.21</ele><time>2025-11-27T01:34:24.000Z</time></trkpt>
        <trkpt lat="27.2102024" lon="103.0914704"><ele>3455.05</ele><time>2025-11-27T01:34:40.000Z</time></trkpt>
        <trkpt lat="27.2101666" lon="103.0915757"><ele>3450.62</ele><time>2025-11-27T01:34:50.000Z</time></trkpt>
        <trkpt lat="27.2101323" lon="103.0916813"><ele>3446.06</ele><time>2025-11-27T01:34:58.000Z</time></trkpt>
        <trkpt lat="27.2100821" lon="103.0917716"><ele>3442.44</ele><time>2025-11-27T01:35:08.000Z</time></trkpt>
        <trkpt lat="27.2100292" lon="103.091862"><ele>3438.87</ele><time>2025-11-27T01:35:20.000Z</time></trkpt>
        <trkpt lat="27.2099801" lon="103.0919537"><ele>3436.28</ele><time>2025-11-27T01:35:32.000Z</time></trkpt>
        <trkpt lat="27.2099535" lon="103.0919944"><ele>3433.4</ele><time>2025-11-27T01:35:38.000Z</time></trkpt>
        <trkpt lat="27.2099997" lon="103.0918645"><ele>3431.32</ele><time>2025-11-27T01:37:14.000Z</time></trkpt>
        <trkpt lat="27.2100524" lon="103.0917758"><ele>3431.39</ele><time>2025-11-27T01:38:06.000Z</time></trkpt>
        <trkpt lat="27.2101035" lon="103.0916805"><ele>3433.15</ele><time>2025-11-27T01:38:18.000Z</time></trkpt>
        <trkpt lat="27.2101219" lon="103.0916528"><ele>3434.08</ele><time>2025-11-27T01:38:22.000Z</time></trkpt>
        <trkpt lat="27.2101944" lon="103.0916394"><ele>3434.28</ele><time>2025-11-27T01:38:44.000Z</time></trkpt>
        <trkpt lat="27.2102741" lon="103.0916884"><ele>3432.09</ele><time>2025-11-27T01:38:54.000Z</time></trkpt>
        <trkpt lat="27.2103382" lon="103.0917715"><ele>3429.46</ele><time>2025-11-27T01:39:06.000Z</time></trkpt>
        <trkpt lat="27.2103922" lon="103.0918651"><ele>3426.87</ele><time>2025-11-27T01:39:30.000Z</time></trkpt>
        <trkpt lat="27.2104316" lon="103.0919643"><ele>3423.83</ele><time>2025-11-27T01:39:58.000Z</time></trkpt>
        <trkpt lat="27.2104836" lon="103.0920554"><ele>3420.71</ele><time>2025-11-27T01:40:22.000Z</time></trkpt>
        <trkpt lat="27.2104855" lon="103.0921557"><ele>3417.68</ele><time>2025-11-27T01:40:46.000Z</time></trkpt>
        <trkpt lat="27.2105272" lon="103.0922412"><ele>3414.38</ele><time>2025-11-27T01:41:24.000Z</time></trkpt>
        <trkpt lat="27.210572" lon="103.0923325"><ele>3410.15</ele><time>2025-11-27T01:41:44.000Z</time></trkpt>
        <trkpt lat="27.2106089" lon="103.0924373"><ele>3406.12</ele><time>2025-11-27T01:42:02.000Z</time></trkpt>
        <trkpt lat="27.2106369" lon="103.0925401"><ele>3402.49</ele><time>2025-11-27T01:42:18.000Z</time></trkpt>
        <trkpt lat="27.2106808" lon="103.0926387"><ele>3399.26</ele><time>2025-11-27T01:42:40.000Z</time></trkpt>
        <trkpt lat="27.2106979" lon="103.0927392"><ele>3396.22</ele><time>2025-11-27T01:43:02.000Z</time></trkpt>
        <trkpt lat="27.2107165" lon="103.0928393"><ele>3394.01</ele><time>2025-11-27T01:43:18.000Z</time></trkpt>
        <trkpt lat="27.2107084" lon="103.0929446"><ele>3393.25</ele><time>2025-11-27T01:43:36.000Z</time></trkpt>
        <trkpt lat="27.2106485" lon="103.0930187"><ele>3393.67</ele><time>2025-11-27T01:44:04.000Z</time></trkpt>
        <trkpt lat="27.2106514" lon="103.0931095"><ele>3393.88</ele><time>2025-11-27T01:44:20.000Z</time></trkpt>
        <trkpt lat="27.2105904" lon="103.0930949"><ele>3391.95</ele><time>2025-11-27T01:44:44.000Z</time></trkpt>
        <trkpt lat="27.2105744" lon="103.093157"><ele>3389.1</ele><time>2025-11-27T01:44:56.000Z</time></trkpt>
        <trkpt lat="27.2105964" lon="103.0932512"><ele>3385.67</ele><time>2025-11-27T01:45:10.000Z</time></trkpt>
        <trkpt lat="27.2105717" lon="103.0933458"><ele>3382.27</ele><time>2025-11-27T01:45:44.000Z</time></trkpt>
        <trkpt lat="27.2105554" lon="103.0934539"><ele>3377.39</ele><time>2025-11-27T01:46:14.000Z</time></trkpt>
        <trkpt lat="27.2105414" lon="103.0935721"><ele>3371.66</ele><time>2025-11-27T01:46:28.000Z</time></trkpt>
        <trkpt lat="27.2105246" lon="103.0936828"><ele>3367.59</ele><time>2025-11-27T01:46:50.000Z</time></trkpt>
        <trkpt lat="27.2104889" lon="103.093782"><ele>3363.67</ele><time>2025-11-27T01:47:16.000Z</time></trkpt>
        <trkpt lat="27.2104826" lon="103.0938908"><ele>3359.57</ele><time>2025-11-27T01:47:34.000Z</time></trkpt>
        <trkpt lat="27.2105041" lon="103.093996"><ele>3355.23</ele><time>2025-11-27T01:49:28.000Z</time></trkpt>
        <trkpt lat="27.2104722" lon="103.0940984"><ele>3349.08</ele><time>2025-11-27T01:49:50.000Z</time></trkpt>
        <trkpt lat="27.2104179" lon="103.0941924"><ele>3343.8</ele><time>2025-11-27T01:51:20.000Z</time></trkpt>
        <trkpt lat="27.2103937" lon="103.0942972"><ele>3339.18</ele><time>2025-11-27T01:51:46.000Z</time></trkpt>
        <trkpt lat="27.2103835" lon="103.0944"><ele>3334.87</ele><time>2025-11-27T01:52:32.000Z</time></trkpt>
        <trkpt lat="27.21033" lon="103.0944849"><ele>3331.12</ele><time>2025-11-27T01:53:28.000Z</time></trkpt>
        <trkpt lat="27.2102737" lon="103.0945672"><ele>3329.83</ele><time>2025-11-27T01:53:54.000Z</time></trkpt>
        <trkpt lat="27.2102307" lon="103.0946562"><ele>3326.88</ele><time>2025-11-27T01:54:24.000Z</time></trkpt>
        <trkpt lat="27.2101848" lon="103.0947429"><ele>3323.17</ele><time>2025-11-27T01:54:48.000Z</time></trkpt>
        <trkpt lat="27.2101384" lon="103.0948312"><ele>3319.79</ele><time>2025-11-27T01:55:06.000Z</time></trkpt>
        <trkpt lat="27.2100815" lon="103.0949106"><ele>3316.52</ele><time>2025-11-27T01:55:24.000Z</time></trkpt>
        <trkpt lat="27.2100443" lon="103.0950131"><ele>3313.41</ele><time>2025-11-27T01:55:46.000Z</time></trkpt>
        <trkpt lat="27.2099969" lon="103.0951045"><ele>3309.71</ele><time>2025-11-27T01:56:04.000Z</time></trkpt>
        <trkpt lat="27.2099484" lon="103.0952027"><ele>3306.57</ele><time>2025-11-27T01:56:46.000Z</time></trkpt>
        <trkpt lat="27.2099164" lon="103.0953098"><ele>3303.34</ele><time>2025-11-27T01:57:02.000Z</time></trkpt>
        <trkpt lat="27.2098584" lon="103.0953962"><ele>3300.61</ele><time>2025-11-27T01:57:18.000Z</time></trkpt>
        <trkpt lat="27.2098159" lon="103.0954946"><ele>3298.5</ele><time>2025-11-27T01:57:36.000Z</time></trkpt>
        <trkpt lat="27.2097665" lon="103.0955834"><ele>3296.82</ele><time>2025-11-27T01:57:58.000Z</time></trkpt>
        <trkpt lat="27.2097032" lon="103.0956612"><ele>3294.85</ele><time>2025-11-27T01:58:16.000Z</time></trkpt>
        <trkpt lat="27.2096546" lon="103.0957524"><ele>3292.28</ele><time>2025-11-27T01:58:30.000Z</time></trkpt>
        <trkpt lat="27.2096048" lon="103.0958435"><ele>3289.79</ele><time>2025-11-27T01:58:48.000Z</time></trkpt>
        <trkpt lat="27.2095507" lon="103.095926"><ele>3286.82</ele><time>2025-11-27T01:59:04.000Z</time></trkpt>
        <trkpt lat="27.2095193" lon="103.0960238"><ele>3283.65</ele><time>2025-11-27T01:59:26.000Z</time></trkpt>
        <trkpt lat="27.2094837" lon="103.0961177"><ele>3280.86</ele><time>2025-11-27T01:59:44.000Z</time></trkpt>
        <trkpt lat="27.2094122" lon="103.0961824"><ele>3275.04</ele><time>2025-11-27T02:00:10.000Z</time></trkpt>
        <trkpt lat="27.2093326" lon="103.0962401"><ele>3269.76</ele><time>2025-11-27T02:00:28.000Z</time></trkpt>
        <trkpt lat="27.209245" lon="103.0962946"><ele>3265.32</ele><time>2025-11-27T02:00:44.000Z</time></trkpt>
        <trkpt lat="27.2091908" lon="103.0963418"><ele>3261.17</ele><time>2025-11-27T02:00:54.000Z</time></trkpt>
        <trkpt lat="27.2091185" lon="103.0963877"><ele>3258.17</ele><time>2025-11-27T02:01:22.000Z</time></trkpt>
        <trkpt lat="27.209062" lon="103.0964708"><ele>3255.24</ele><time>2025-11-27T02:01:40.000Z</time></trkpt>
        <trkpt lat="27.2090191" lon="103.0965637"><ele>3252.48</ele><time>2025-11-27T02:02:14.000Z</time></trkpt>
        <trkpt lat="27.2089813" lon="103.0966613"><ele>3248.93</ele><time>2025-11-27T02:03:34.000Z</time></trkpt>
        <trkpt lat="27.2089527" lon="103.0967703"><ele>3246.13</ele><time>2025-11-27T02:04:14.000Z</time></trkpt>
        <trkpt lat="27.2089177" lon="103.09688"><ele>3242.74</ele><time>2025-11-27T02:04:28.000Z</time></trkpt>
        <trkpt lat="27.2088742" lon="103.0969881"><ele>3241.19</ele><time>2025-11-27T02:04:42.000Z</time></trkpt>
        <trkpt lat="27.2088385" lon="103.0970868"><ele>3239.94</ele><time>2025-11-27T02:04:52.000Z</time></trkpt>
        <trkpt lat="27.2087944" lon="103.0971852"><ele>3238.51</ele><time>2025-11-27T02:05:02.000Z</time></trkpt>
        <trkpt lat="27.2087366" lon="103.0972815"><ele>3237.09</ele><time>2025-11-27T02:05:14.000Z</time></trkpt>
        <trkpt lat="27.2086866" lon="103.0973733"><ele>3234.84</ele><time>2025-11-27T02:05:24.000Z</time></trkpt>
        <trkpt lat="27.2086393" lon="103.0974635"><ele>3232.52</ele><time>2025-11-27T02:05:44.000Z</time></trkpt>
        <trkpt lat="27.2085708" lon="103.0973819"><ele>3228.71</ele><time>2025-11-27T02:07:12.000Z</time></trkpt>
        <trkpt lat="27.2085625" lon="103.0972672"><ele>3223.54</ele><time>2025-11-27T02:07:42.000Z</time></trkpt>
        <trkpt lat="27.2085294" lon="103.0971715"><ele>3218.6</ele><time>2025-11-27T02:08:02.000Z</time></trkpt>
        <trkpt lat="27.2084673" lon="103.0970995"><ele>3214.24</ele><time>2025-11-27T02:08:29.000Z</time></trkpt>
        <trkpt lat="27.2084108" lon="103.0970212"><ele>3210.15</ele><time>2025-11-27T02:08:49.000Z</time></trkpt>
        <trkpt lat="27.2083556" lon="103.0969385"><ele>3205.8</ele><time>2025-11-27T02:09:06.000Z</time></trkpt>
        <trkpt lat="27.2082796" lon="103.0968614"><ele>3201.42</ele><time>2025-11-27T02:12:51.000Z</time></trkpt>
        <trkpt lat="27.2082538" lon="103.0968509"><ele>3197.82</ele><time>2025-11-27T02:13:05.000Z</time></trkpt>
        <trkpt lat="27.2081763" lon="103.096796"><ele>3195.07</ele><time>2025-11-27T02:14:17.000Z</time></trkpt>
        <trkpt lat="27.2081344" lon="103.0967023"><ele>3190.92</ele><time>2025-11-27T02:14:35.000Z</time></trkpt>
        <trkpt lat="27.2081101" lon="103.0965898"><ele>3186.44</ele><time>2025-11-27T02:14:53.000Z</time></trkpt>
        <trkpt lat="27.208074" lon="103.0964781"><ele>3182.69</ele><time>2025-11-27T02:15:09.000Z</time></trkpt>
        <trkpt lat="27.2080382" lon="103.0963737"><ele>3179.11</ele><time>2025-11-27T02:15:23.000Z</time></trkpt>
        <trkpt lat="27.2080109" lon="103.0962734"><ele>3176.18</ele><time>2025-11-27T02:15:43.000Z</time></trkpt>
        <trkpt lat="27.2079699" lon="103.0961776"><ele>3173.98</ele><time>2025-11-27T02:16:01.000Z</time></trkpt>
        <trkpt lat="27.2079317" lon="103.0960779"><ele>3170.21</ele><time>2025-11-27T02:16:13.000Z</time></trkpt>
        <trkpt lat="27.2078896" lon="103.0959831"><ele>3167.29</ele><time>2025-11-27T02:16:27.000Z</time></trkpt>
        <trkpt lat="27.2078567" lon="103.0958839"><ele>3163.84</ele><time>2025-11-27T02:16:41.000Z</time></trkpt>
        <trkpt lat="27.2078415" lon="103.0958527"><ele>3160.47</ele><time>2025-11-27T02:16:45.000Z</time></trkpt>
        <trkpt lat="27.2077951" lon="103.0957882"><ele>3158.13</ele><time>2025-11-27T02:17:05.000Z</time></trkpt>
        <trkpt lat="27.2077409" lon="103.0956984"><ele>3155.1</ele><time>2025-11-27T02:17:17.000Z</time></trkpt>
        <trkpt lat="27.2076829" lon="103.0956122"><ele>3151.8</ele><time>2025-11-27T02:17:29.000Z</time></trkpt>
        <trkpt lat="27.2076075" lon="103.0955517"><ele>3148.04</ele><time>2025-11-27T02:17:49.000Z</time></trkpt>
        <trkpt lat="27.2075392" lon="103.095483"><ele>3143.89</ele><time>2025-11-27T02:18:07.000Z</time></trkpt>
        <trkpt lat="27.2074541" lon="103.0954555"><ele>3138.72</ele><time>2025-11-27T02:18:39.000Z</time></trkpt>
        <trkpt lat="27.2073645" lon="103.0954301"><ele>3133.12</ele><time>2025-11-27T02:19:01.000Z</time></trkpt>
        <trkpt lat="27.2073009" lon="103.0954963"><ele>3128.6</ele><time>2025-11-27T02:19:15.000Z</time></trkpt>
        <trkpt lat="27.2072681" lon="103.0955982"><ele>3125.15</ele><time>2025-11-27T02:19:27.000Z</time></trkpt>
        <trkpt lat="27.2072207" lon="103.0957007"><ele>3122.4</ele><time>2025-11-27T02:19:41.000Z</time></trkpt>
        <trkpt lat="27.2071955" lon="103.0958074"><ele>3119.64</ele><time>2025-11-27T02:19:55.000Z</time></trkpt>
        <trkpt lat="27.2071231" lon="103.0958459"><ele>3116.92</ele><time>2025-11-27T02:20:19.000Z</time></trkpt>
        <trkpt lat="27.2071055" lon="103.0959337"><ele>3113.84</ele><time>2025-11-27T02:27:54.000Z</time></trkpt>
        <trkpt lat="27.2070119" lon="103.0959392"><ele>3110.2</ele><time>2025-11-27T02:28:59.000Z</time></trkpt>
        <trkpt lat="27.206915" lon="103.095922"><ele>3106.58</ele><time>2025-11-27T02:29:31.000Z</time></trkpt>
        <trkpt lat="27.2068161" lon="103.0959113"><ele>3103.03</ele><time>2025-11-27T02:29:56.000Z</time></trkpt>
        <trkpt lat="27.2067211" lon="103.0958901"><ele>3098.67</ele><time>2025-11-27T02:30:14.000Z</time></trkpt>
        <trkpt lat="27.206647" lon="103.0959344"><ele>3094.19</ele><time>2025-11-27T02:30:38.000Z</time></trkpt>
        <trkpt lat="27.2066099" lon="103.0960275"><ele>3089.19</ele><time>2025-11-27T02:30:58.000Z</time></trkpt>
        <trkpt lat="27.2066024" lon="103.0961442"><ele>3085.52</ele><time>2025-11-27T02:31:14.000Z</time></trkpt>
        <trkpt lat="27.2065557" lon="103.0962448"><ele>3082.27</ele><time>2025-11-27T02:31:34.000Z</time></trkpt>
        <trkpt lat="27.2065152" lon="103.0963505"><ele>3079.51</ele><time>2025-11-27T02:31:50.000Z</time></trkpt>
        <trkpt lat="27.206498" lon="103.0964562"><ele>3076.43</ele><time>2025-11-27T02:32:02.000Z</time></trkpt>
        <trkpt lat="27.2064606" lon="103.0965481"><ele>3073.61</ele><time>2025-11-27T02:32:18.000Z</time></trkpt>
        <trkpt lat="27.2064525" lon="103.0966617"><ele>3070.89</ele><time>2025-11-27T02:32:34.000Z</time></trkpt>
        <trkpt lat="27.2064019" lon="103.0967543"><ele>3068.27</ele><time>2025-11-27T02:32:48.000Z</time></trkpt>
        <trkpt lat="27.2063348" lon="103.0968405"><ele>3065.48</ele><time>2025-11-27T02:32:58.000Z</time></trkpt>
        <trkpt lat="27.2062856" lon="103.0969331"><ele>3062.68</ele><time>2025-11-27T02:33:08.000Z</time></trkpt>
        <trkpt lat="27.2062524" lon="103.0970383"><ele>3059.72</ele><time>2025-11-27T02:33:18.000Z</time></trkpt>
        <trkpt lat="27.2062128" lon="103.0971367"><ele>3057.16</ele><time>2025-11-27T02:33:36.000Z</time></trkpt>
        <trkpt lat="27.2061704" lon="103.0972256"><ele>3054.17</ele><time>2025-11-27T02:37:11.000Z</time></trkpt>
        <trkpt lat="27.2061572" lon="103.0973306"><ele>3051.27</ele><time>2025-11-27T02:37:23.000Z</time></trkpt>
        <trkpt lat="27.2061417" lon="103.0974343"><ele>3049.01</ele><time>2025-11-27T02:37:33.000Z</time></trkpt>
        <trkpt lat="27.2061272" lon="103.0975381"><ele>3046.85</ele><time>2025-11-27T02:37:59.000Z</time></trkpt>
        <trkpt lat="27.2060885" lon="103.0976354"><ele>3044.86</ele><time>2025-11-27T02:38:09.000Z</time></trkpt>
        <trkpt lat="27.2060498" lon="103.0977309"><ele>3043.2</ele><time>2025-11-27T02:38:19.000Z</time></trkpt>
        <trkpt lat="27.206014" lon="103.0978249"><ele>3041.29</ele><time>2025-11-27T02:38:33.000Z</time></trkpt>
        <trkpt lat="27.2060074" lon="103.0979349"><ele>3038.97</ele><time>2025-11-27T02:38:53.000Z</time></trkpt>
        <trkpt lat="27.2059466" lon="103.0980099"><ele>3036.34</ele><time>2025-11-27T02:39:05.000Z</time></trkpt>
        <trkpt lat="27.2058616" lon="103.0980584"><ele>3034.54</ele><time>2025-11-27T02:39:19.000Z</time></trkpt>
        <trkpt lat="27.2058316" lon="103.0981472"><ele>3032.18</ele><time>2025-11-27T02:39:35.000Z</time></trkpt>
        <trkpt lat="27.205809" lon="103.0982457"><ele>3030.46</ele><time>2025-11-27T02:39:43.000Z</time></trkpt>
        <trkpt lat="27.2057932" lon="103.0983511"><ele>3028.78</ele><time>2025-11-27T02:39:51.000Z</time></trkpt>
        <trkpt lat="27.2057628" lon="103.0984559"><ele>3027.98</ele><time>2025-11-27T02:40:03.000Z</time></trkpt>
        <trkpt lat="27.2057275" lon="103.0985557"><ele>3026.82</ele><time>2025-11-27T02:40:13.000Z</time></trkpt>
        <trkpt lat="27.2056897" lon="103.0986533"><ele>3025.98</ele><time>2025-11-27T02:40:23.000Z</time></trkpt>
        <trkpt lat="27.205634" lon="103.0987409"><ele>3025.34</ele><time>2025-11-27T02:40:41.000Z</time></trkpt>
        <trkpt lat="27.205589" lon="103.0988376"><ele>3023.83</ele><time>2025-11-27T02:40:51.000Z</time></trkpt>
        <trkpt lat="27.2055532" lon="103.0989394"><ele>3022.03</ele><time>2025-11-27T02:41:01.000Z</time></trkpt>
        <trkpt lat="27.2055281" lon="103.099045"><ele>3020.08</ele><time>2025-11-27T02:41:11.000Z</time></trkpt>
        <trkpt lat="27.2054913" lon="103.0991476"><ele>3018.37</ele><time>2025-11-27T02:41:21.000Z</time></trkpt>
        <trkpt lat="27.2054509" lon="103.0992509"><ele>3016.96</ele><time>2025-11-27T02:41:31.000Z</time></trkpt>
        <trkpt lat="27.2054231" lon="103.0993035"><ele>3015.12</ele><time>2025-11-27T02:41:37.000Z</time></trkpt>
        <trkpt lat="27.2053908" lon="103.0993982"><ele>3013.69</ele><time>2025-11-27T02:42:08.000Z</time></trkpt>
        <trkpt lat="27.2053676" lon="103.0995034"><ele>3012.15</ele><time>2025-11-27T02:42:20.000Z</time></trkpt>
        <trkpt lat="27.2053506" lon="103.0996066"><ele>3009.96</ele><time>2025-11-27T02:42:40.000Z</time></trkpt>
        <trkpt lat="27.2053176" lon="103.0997072"><ele>3008.5</ele><time>2025-11-27T02:43:10.000Z</time></trkpt>
        <trkpt lat="27.2052986" lon="103.0997808"><ele>3007.83</ele><time>2025-11-27T02:43:22.000Z</time></trkpt>
        <trkpt lat="27.2052755" lon="103.0998738"><ele>3006.72</ele><time>2025-11-27T02:43:50.000Z</time></trkpt>
        <trkpt lat="27.205242" lon="103.0999712"><ele>3004.56</ele><time>2025-11-27T02:44:22.000Z</time></trkpt>
        <trkpt lat="27.2052056" lon="103.1000788"><ele>3002.02</ele><time>2025-11-27T02:44:40.000Z</time></trkpt>
        <trkpt lat="27.205174" lon="103.1001924"><ele>2999.19</ele><time>2025-11-27T02:44:54.000Z</time></trkpt>
        <trkpt lat="27.2051274" lon="103.1002856"><ele>2996.48</ele><time>2025-11-27T02:45:02.000Z</time></trkpt>
        <trkpt lat="27.2050911" lon="103.1003898"><ele>2994.17</ele><time>2025-11-27T02:45:12.000Z</time></trkpt>
        <trkpt lat="27.2050701" lon="103.1004917"><ele>2992.22</ele><time>2025-11-27T02:45:40.000Z</time></trkpt>
        <trkpt lat="27.205045" lon="103.1005992"><ele>2990.61</ele><time>2025-11-27T02:45:54.000Z</time></trkpt>
        <trkpt lat="27.2050216" lon="103.100712"><ele>2990.09</ele><time>2025-11-27T02:46:04.000Z</time></trkpt>
        <trkpt lat="27.2049977" lon="103.1008223"><ele>2988.97</ele><time>2025-11-27T02:46:16.000Z</time></trkpt>
        <trkpt lat="27.2049746" lon="103.1009163"><ele>2988.03</ele><time>2025-11-27T02:46:26.000Z</time></trkpt>
        <trkpt lat="27.2049381" lon="103.1010143"><ele>2987.23</ele><time>2025-11-27T02:46:44.000Z</time></trkpt>
        <trkpt lat="27.2048771" lon="103.1011139"><ele>2986.04</ele><time>2025-11-27T02:47:48.000Z</time></trkpt>
        <trkpt lat="27.2048313" lon="103.1012169"><ele>2985.52</ele><time>2025-11-27T02:47:58.000Z</time></trkpt>
        <trkpt lat="27.2047864" lon="103.1013145"><ele>2985.64</ele><time>2025-11-27T02:48:08.000Z</time></trkpt>
        <trkpt lat="27.2047432" lon="103.1014196"><ele>2985.58</ele><time>2025-11-27T02:48:18.000Z</time></trkpt>
        <trkpt lat="27.2046961" lon="103.1015126"><ele>2984.91</ele><time>2025-11-27T02:48:32.000Z</time></trkpt>
        <trkpt lat="27.2046671" lon="103.1016157"><ele>2983.54</ele><time>2025-11-27T02:48:42.000Z</time></trkpt>
        <trkpt lat="27.2046352" lon="103.1017159"><ele>2981.62</ele><time>2025-11-27T02:48:52.000Z</time></trkpt>
        <trkpt lat="27.2046002" lon="103.1018144"><ele>2980.24</ele><time>2025-11-27T02:49:00.000Z</time></trkpt>
        <trkpt lat="27.2045946" lon="103.1019199"><ele>2978.86</ele><time>2025-11-27T02:49:10.000Z</time></trkpt>
        <trkpt lat="27.204627" lon="103.1020258"><ele>2976.91</ele><time>2025-11-27T02:49:18.000Z</time></trkpt>
        <trkpt lat="27.2046854" lon="103.1021316"><ele>2975.33</ele><time>2025-11-27T02:49:28.000Z</time></trkpt>
        <trkpt lat="27.2047195" lon="103.1022392"><ele>2974.29</ele><time>2025-11-27T02:49:36.000Z</time></trkpt>
        <trkpt lat="27.2047178" lon="103.1023478"><ele>2973.52</ele><time>2025-11-27T02:49:44.000Z</time></trkpt>
        <trkpt lat="27.2046857" lon="103.1024462"><ele>2973</ele><time>2025-11-27T02:49:52.000Z</time></trkpt>
        <trkpt lat="27.2046471" lon="103.102546"><ele>2972.97</ele><time>2025-11-27T02:50:00.000Z</time></trkpt>
        <trkpt lat="27.2046037" lon="103.1026499"><ele>2973.7</ele><time>2025-11-27T02:50:08.000Z</time></trkpt>
        <trkpt lat="27.2045487" lon="103.1027506"><ele>2974.78</ele><time>2025-11-27T02:50:16.000Z</time></trkpt>
        <trkpt lat="27.2044958" lon="103.1028468"><ele>2974.74</ele><time>2025-11-27T02:50:24.000Z</time></trkpt>
        <trkpt lat="27.2044669" lon="103.1029557"><ele>2974.73</ele><time>2025-11-27T02:50:32.000Z</time></trkpt>
        <trkpt lat="27.2044648" lon="103.1030714"><ele>2975.2</ele><time>2025-11-27T02:50:40.000Z</time></trkpt>
        <trkpt lat="27.2045008" lon="103.1031698"><ele>2975.08</ele><time>2025-11-27T02:50:48.000Z</time></trkpt>
        <trkpt lat="27.2045161" lon="103.1032037"><ele>2973.42</ele><time>2025-11-27T02:50:52.000Z</time></trkpt>
        <trkpt lat="27.2045593" lon="103.1032772"><ele>2972.41</ele><time>2025-11-27T02:51:24.000Z</time></trkpt>
        <trkpt lat="27.2046026" lon="103.1033657"><ele>2970.41</ele><time>2025-11-27T02:51:32.000Z</time></trkpt>
        <trkpt lat="27.2046591" lon="103.1034555"><ele>2967.79</ele><time>2025-11-27T02:51:40.000Z</time></trkpt>
        <trkpt lat="27.2047242" lon="103.1035345"><ele>2965.39</ele><time>2025-11-27T02:51:48.000Z</time></trkpt>
        <trkpt lat="27.2047746" lon="103.103627"><ele>2962.83</ele><time>2025-11-27T02:51:56.000Z</time></trkpt>
        <trkpt lat="27.2048025" lon="103.1037297"><ele>2961.13</ele><time>2025-11-27T02:52:04.000Z</time></trkpt>
        <trkpt lat="27.204803" lon="103.1038467"><ele>2960.98</ele><time>2025-11-27T02:52:12.000Z</time></trkpt>
        <trkpt lat="27.2048125" lon="103.103966"><ele>2961.32</ele><time>2025-11-27T02:52:22.000Z</time></trkpt>
        <trkpt lat="27.2048358" lon="103.1040865"><ele>2961.77</ele><time>2025-11-27T02:52:32.000Z</time></trkpt>
        <trkpt lat="27.2048372" lon="103.1041594"><ele>2961.69</ele><time>2025-11-27T02:52:40.000Z</time></trkpt>
        <trkpt lat="27.2047883" lon="103.1042507"><ele>2961.81</ele><time>2025-11-27T03:04:46.000Z</time></trkpt>
        <trkpt lat="27.2047165" lon="103.1043278"><ele>2958.37</ele><time>2025-11-27T03:04:58.000Z</time></trkpt>
        <trkpt lat="27.2046498" lon="103.1044227"><ele>2956.66</ele><time>2025-11-27T03:05:10.000Z</time></trkpt>
        <trkpt lat="27.2045758" lon="103.1045105"><ele>2955.56</ele><time>2025-11-27T03:05:18.000Z</time></trkpt>
        <trkpt lat="27.2045105" lon="103.1045986"><ele>2954.3</ele><time>2025-11-27T03:05:28.000Z</time></trkpt>
        <trkpt lat="27.2044655" lon="103.1047051"><ele>2952.99</ele><time>2025-11-27T03:05:38.000Z</time></trkpt>
        <trkpt lat="27.2044141" lon="103.1048125"><ele>2951.33</ele><time>2025-11-27T03:05:48.000Z</time></trkpt>
        <trkpt lat="27.2043743" lon="103.1049141"><ele>2949.55</ele><time>2025-11-27T03:05:58.000Z</time></trkpt>
        <trkpt lat="27.2043469" lon="103.1050132"><ele>2946.86</ele><time>2025-11-27T03:06:12.000Z</time></trkpt>
        <trkpt lat="27.2043764" lon="103.1051084"><ele>2943.73</ele><time>2025-11-27T03:06:22.000Z</time></trkpt>
        <trkpt lat="27.2044432" lon="103.1051927"><ele>2940.83</ele><time>2025-11-27T03:06:32.000Z</time></trkpt>
        <trkpt lat="27.2045193" lon="103.1052646"><ele>2938.14</ele><time>2025-11-27T03:06:40.000Z</time></trkpt>
        <trkpt lat="27.2045962" lon="103.1053454"><ele>2936.18</ele><time>2025-11-27T03:06:50.000Z</time></trkpt>
        <trkpt lat="27.204664" lon="103.1054308"><ele>2933.73</ele><time>2025-11-27T03:07:04.000Z</time></trkpt>
        <trkpt lat="27.2047225" lon="103.1055163"><ele>2930.81</ele><time>2025-11-27T03:07:22.000Z</time></trkpt>
        <trkpt lat="27.2047676" lon="103.1056051"><ele>2927.81</ele><time>2025-11-27T03:07:42.000Z</time></trkpt>
        <trkpt lat="27.2047661" lon="103.1057163"><ele>2924.79</ele><time>2025-11-27T03:08:20.000Z</time></trkpt>
        <trkpt lat="27.2047854" lon="103.1058182"><ele>2920.83</ele><time>2025-11-27T03:08:34.000Z</time></trkpt>
        <trkpt lat="27.2047428" lon="103.1059087"><ele>2917.67</ele><time>2025-11-27T03:08:54.000Z</time></trkpt>
        <trkpt lat="27.2046613" lon="103.1059019"><ele>2914.51</ele><time>2025-11-27T03:09:06.000Z</time></trkpt>
        <trkpt lat="27.2045975" lon="103.1059552"><ele>2911.86</ele><time>2025-11-27T03:09:38.000Z</time></trkpt>
        <trkpt lat="27.2045268" lon="103.1060223"><ele>2907.52</ele><time>2025-11-27T03:10:00.000Z</time></trkpt>
        <trkpt lat="27.2045229" lon="103.1061196"><ele>2902.32</ele><time>2025-11-27T03:10:36.000Z</time></trkpt>
        <trkpt lat="27.2045731" lon="103.1062145"><ele>2897.88</ele><time>2025-11-27T03:10:56.000Z</time></trkpt>
        <trkpt lat="27.2046042" lon="103.1063188"><ele>2894.35</ele><time>2025-11-27T03:11:20.000Z</time></trkpt>
        <trkpt lat="27.2046045" lon="103.1064221"><ele>2891.07</ele><time>2025-11-27T03:11:44.000Z</time></trkpt>
        <trkpt lat="27.2045618" lon="103.1065095"><ele>2888.18</ele><time>2025-11-27T03:12:18.000Z</time></trkpt>
        <trkpt lat="27.2045051" lon="103.106594"><ele>2885.57</ele><time>2025-11-27T03:12:34.000Z</time></trkpt>
        <trkpt lat="27.2044461" lon="103.1066869"><ele>2882.98</ele><time>2025-11-27T03:12:58.000Z</time></trkpt>
        <trkpt lat="27.2043875" lon="103.1067725"><ele>2880.06</ele><time>2025-11-27T03:13:18.000Z</time></trkpt>
        <trkpt lat="27.2043368" lon="103.1068745"><ele>2877.16</ele><time>2025-11-27T03:13:34.000Z</time></trkpt>
        <trkpt lat="27.2042769" lon="103.1069695"><ele>2873.44</ele><time>2025-11-27T03:13:46.000Z</time></trkpt>
        <trkpt lat="27.2042093" lon="103.107057"><ele>2870.56</ele><time>2025-11-27T03:13:58.000Z</time></trkpt>
        <trkpt lat="27.2041718" lon="103.1070905"><ele>2867.82</ele><time>2025-11-27T03:14:06.000Z</time></trkpt>
        <trkpt lat="27.2041878" lon="103.1071722"><ele>2864.94</ele><time>2025-11-27T03:14:20.000Z</time></trkpt>
        <trkpt lat="27.2042179" lon="103.1072791"><ele>2861.98</ele><time>2025-11-27T03:14:30.000Z</time></trkpt>
        <trkpt lat="27.2042481" lon="103.1073887"><ele>2859.5</ele><time>2025-11-27T03:14:40.000Z</time></trkpt>
        <trkpt lat="27.2042427" lon="103.1075013"><ele>2857.63</ele><time>2025-11-27T03:14:52.000Z</time></trkpt>
        <trkpt lat="27.2042292" lon="103.1076194"><ele>2855.82</ele><time>2025-11-27T03:15:04.000Z</time></trkpt>
        <trkpt lat="27.2042225" lon="103.1077307"><ele>2853.52</ele><time>2025-11-27T03:15:14.000Z</time></trkpt>
        <trkpt lat="27.2042305" lon="103.1078422"><ele>2851.36</ele><time>2025-11-27T03:15:28.000Z</time></trkpt>
        <trkpt lat="27.2042922" lon="103.1079137"><ele>2848.13</ele><time>2025-11-27T03:15:40.000Z</time></trkpt>
        <trkpt lat="27.2043803" lon="103.1079615"><ele>2845.28</ele><time>2025-11-27T03:15:50.000Z</time></trkpt>
        <trkpt lat="27.2044746" lon="103.1080027"><ele>2842.44</ele><time>2025-11-27T03:16:02.000Z</time></trkpt>
        <trkpt lat="27.2045721" lon="103.1080502"><ele>2839.87</ele><time>2025-11-27T03:16:12.000Z</time></trkpt>
        <trkpt lat="27.2046156" lon="103.1080709"><ele>2837.81</ele><time>2025-11-27T03:16:16.000Z</time></trkpt>
        <trkpt lat="27.2046796" lon="103.1081158"><ele>2836.47</ele><time>2025-11-27T03:16:49.000Z</time></trkpt>
        <trkpt lat="27.2047621" lon="103.1081754"><ele>2837.27</ele><time>2025-11-27T03:16:59.000Z</time></trkpt>
        <trkpt lat="27.2048412" lon="103.1082368"><ele>2836.8</ele><time>2025-11-27T03:17:07.000Z</time></trkpt>
        <trkpt lat="27.2049143" lon="103.108317"><ele>2836.15</ele><time>2025-11-27T03:17:19.000Z</time></trkpt>
        <trkpt lat="27.2049752" lon="103.1084044"><ele>2835.11</ele><time>2025-11-27T03:17:49.000Z</time></trkpt>
        <trkpt lat="27.2050313" lon="103.1084923"><ele>2834.17</ele><time>2025-11-27T03:18:01.000Z</time></trkpt>
        <trkpt lat="27.2051093" lon="103.1085647"><ele>2832.27</ele><time>2025-11-27T03:18:11.000Z</time></trkpt>
        <trkpt lat="27.205148" lon="103.1086605"><ele>2830.55</ele><time>2025-11-27T03:18:21.000Z</time></trkpt>
        <trkpt lat="27.2051135" lon="103.108733"><ele>2827.77</ele><time>2025-11-27T03:18:31.000Z</time></trkpt>
        <trkpt lat="27.2050511" lon="103.1088148"><ele>2826.32</ele><time>2025-11-27T03:18:43.000Z</time></trkpt>
        <trkpt lat="27.2050542" lon="103.1089134"><ele>2824.93</ele><time>2025-11-27T03:18:57.000Z</time></trkpt>
        <trkpt lat="27.2051152" lon="103.1089982"><ele>2824.09</ele><time>2025-11-27T03:19:05.000Z</time></trkpt>
        <trkpt lat="27.2052008" lon="103.1090756"><ele>2824.3</ele><time>2025-11-27T03:19:13.000Z</time></trkpt>
        <trkpt lat="27.2052934" lon="103.1091496"><ele>2825.01</ele><time>2025-11-27T03:19:21.000Z</time></trkpt>
        <trkpt lat="27.2053835" lon="103.1092216"><ele>2825.07</ele><time>2025-11-27T03:19:29.000Z</time></trkpt>
        <trkpt lat="27.2054378" lon="103.1093203"><ele>2825.13</ele><time>2025-11-27T03:19:37.000Z</time></trkpt>
        <trkpt lat="27.2054524" lon="103.1093513"><ele>2825.45</ele><time>2025-11-27T03:19:45.000Z</time></trkpt>
        <trkpt lat="27.2054524" lon="103.1093513"><ele>2825.45</ele><time>2025-11-27T03:19:57.000Z</time></trkpt>
      </trkseg>
  </trk>
</gpx>